UAL44 KCOS-LEIB
Flight info
| Callsign | UAL44 |
|---|---|
| Flight time | 9h 41m |
| Altitude | 37000 |
| Route | BRK DCT LBF DCT RST DCT PLN DCT TAGET DCT ANATI Q829 YGP DCT VINSI DCT NICSO/M085F390 DCT 48N050W 49N040W 50N030W 51N020W DCT DINIM DCT ELSOX DCT EMPER DCT LASNO/N0489F390 DCT 41N000E DCT VARUT |
| Aircraft | B78X/H-SDE1E2E3FGHIJ2J3J4J5M1RWXY/LB1D1 |
Departure
| Time | 2026-05-06 04:30 |
|---|---|
| Airport | City of Colorado Springs Municipal Airport (KCOS) |
Arrival
| Time | 2026-05-06 14:11 |
|---|---|
| Airport | Ibiza Airport (LEIB) |
| Time | Latitude | Longitude | Altitude | Speed | Heading |
|---|---|---|---|---|---|
| 2026-05-06 04:03 | 38.81497 | -104.70129 | 6198 ft | 0 kts | 225° |
| 2026-05-06 04:09 | 38.81500 | -104.70125 | 6196 ft | 2 kts | 225° |
| 2026-05-06 04:09 | 38.81509 | -104.70113 | 6197 ft | 0 kts | 224° |
| 2026-05-06 04:19 | 38.81507 | -104.70116 | 6198 ft | 2 kts | 224° |
| 2026-05-06 04:20 | 38.81484 | -104.70143 | 6197 ft | 7 kts | 221° |
| 2026-05-06 04:20 | 38.81437 | -104.70145 | 6198 ft | 8 kts | 156° |
| 2026-05-06 04:20 | 38.81381 | -104.70086 | 6198 ft | 13 kts | 136° |
| 2026-05-06 04:20 | 38.81306 | -104.69994 | 6196 ft | 18 kts | 136° |
| 2026-05-06 04:21 | 38.81214 | -104.69873 | 6197 ft | 19 kts | 134° |
| 2026-05-06 04:21 | 38.81125 | -104.69762 | 6196 ft | 17 kts | 136° |
| 2026-05-06 04:21 | 38.81010 | -104.69617 | 6196 ft | 27 kts | 135° |
| 2026-05-06 04:21 | 38.80881 | -104.69451 | 6199 ft | 25 kts | 135° |
| 2026-05-06 04:22 | 38.80759 | -104.69296 | 6198 ft | 24 kts | 135° |
| 2026-05-06 04:22 | 38.80642 | -104.69148 | 6196 ft | 23 kts | 135° |
| 2026-05-06 04:22 | 38.80532 | -104.69009 | 6197 ft | 21 kts | 134° |
| 2026-05-06 04:23 | 38.80345 | -104.68799 | 6198 ft | 16 kts | 163° |
| 2026-05-06 04:23 | 38.80241 | -104.68790 | 6197 ft | 14 kts | 178° |
| 2026-05-06 04:23 | 38.80160 | -104.68788 | 6198 ft | 15 kts | 180° |
| 2026-05-06 04:23 | 38.80075 | -104.68788 | 6198 ft | 10 kts | 180° |
| 2026-05-06 04:24 | 38.79997 | -104.68788 | 6198 ft | 12 kts | 180° |
| 2026-05-06 04:24 | 38.79913 | -104.68787 | 6198 ft | 13 kts | 180° |
| 2026-05-06 04:24 | 38.79790 | -104.68787 | 6198 ft | 22 kts | 180° |
| 2026-05-06 04:24 | 38.79610 | -104.68790 | 6198 ft | 30 kts | 180° |
| 2026-05-06 04:25 | 38.79370 | -104.68790 | 6198 ft | 38 kts | 180° |
| 2026-05-06 04:25 | 38.79079 | -104.68789 | 6198 ft | 42 kts | 180° |
| 2026-05-06 04:25 | 38.78793 | -104.68792 | 6198 ft | 40 kts | 180° |
| 2026-05-06 04:25 | 38.78518 | -104.68790 | 6197 ft | 39 kts | 180° |
| 2026-05-06 04:26 | 38.78287 | -104.68791 | 6198 ft | 37 kts | 180° |
| 2026-05-06 04:26 | 38.78038 | -104.68795 | 6198 ft | 29 kts | 181° |
| 2026-05-06 04:26 | 38.77925 | -104.68752 | 6199 ft | 13 kts | 121° |
| 2026-05-06 04:26 | 38.77915 | -104.68659 | 6197 ft | 9 kts | 91° |
| 2026-05-06 04:27 | 38.77923 | -104.68598 | 6197 ft | 3 kts | 54° |
| 2026-05-06 04:27 | 38.77935 | -104.68592 | 6195 ft | 1 kts | 23° |
| 2026-05-06 04:27 | 38.77945 | -104.68589 | 6196 ft | 3 kts | 16° |
| 2026-05-06 04:27 | 38.77951 | -104.68587 | 6196 ft | 0 kts | 10° |
| 2026-05-06 04:28 | 38.78067 | -104.68581 | 6197 ft | 28 kts | 0° |
| 2026-05-06 04:29 | 38.78272 | -104.68581 | 6198 ft | 63 kts | 360° |
| 2026-05-06 04:29 | 38.78914 | -104.68586 | 6200 ft | 120 kts | 0° |
| 2026-05-06 04:29 | 38.79928 | -104.68588 | 6199 ft | 170 kts | 359° |
| 2026-05-06 04:29 | 38.81234 | -104.68589 | 6456 ft | 202 kts | 360° |
| 2026-05-06 04:30 | 38.82730 | -104.68184 | 6742 ft | 242 kts | 17° |
| 2026-05-06 04:30 | 38.84356 | -104.67509 | 7620 ft | 250 kts | 18° |
| 2026-05-06 04:30 | 38.86074 | -104.66808 | 8308 ft | 268 kts | 18° |
| 2026-05-06 04:30 | 38.86623 | -104.66587 | 8446 ft | 275 kts | 17° |
| 2026-05-06 04:31 | 38.87698 | -104.66157 | 8977 ft | 276 kts | 17° |
| 2026-05-06 04:31 | 38.89554 | -104.65421 | 9873 ft | 282 kts | 17° |
| 2026-05-06 04:31 | 38.91466 | -104.64664 | 10557 ft | 295 kts | 17° |
| 2026-05-06 04:31 | 38.93482 | -104.63845 | 11052 ft | 314 kts | 17° |
| 2026-05-06 04:32 | 38.95435 | -104.63024 | 11458 ft | 333 kts | 17° |
| 2026-05-06 04:32 | 38.97696 | -104.62047 | 11987 ft | 349 kts | 17° |
| 2026-05-06 04:32 | 39.00028 | -104.61018 | 12825 ft | 357 kts | 17° |
| 2026-05-06 04:32 | 39.02352 | -104.59807 | 13680 ft | 366 kts | 30° |
| 2026-05-06 04:33 | 39.04254 | -104.57592 | 14493 ft | 376 kts | 50° |
| 2026-05-06 04:33 | 39.05768 | -104.54863 | 15214 ft | 384 kts | 55° |
| 2026-05-06 04:33 | 39.07207 | -104.51938 | 15958 ft | 390 kts | 56° |
| 2026-05-06 04:33 | 39.08702 | -104.49002 | 16726 ft | 395 kts | 52° |
| 2026-05-06 04:34 | 39.10346 | -104.46139 | 17470 ft | 400 kts | 50° |
| 2026-05-06 04:34 | 39.12023 | -104.43247 | 18210 ft | 406 kts | 51° |
| 2026-05-06 04:34 | 39.13668 | -104.40251 | 18900 ft | 412 kts | 53° |
| 2026-05-06 04:34 | 39.15320 | -104.37200 | 19566 ft | 416 kts | 52° |
| 2026-05-06 04:35 | 39.17009 | -104.34149 | 20243 ft | 420 kts | 52° |
| 2026-05-06 04:35 | 39.18725 | -104.31077 | 20902 ft | 424 kts | 52° |
| 2026-05-06 04:35 | 39.20445 | -104.27966 | 21557 ft | 428 kts | 52° |
| 2026-05-06 04:35 | 39.22176 | -104.24811 | 22200 ft | 432 kts | 52° |
| 2026-05-06 04:36 | 39.23922 | -104.21637 | 22836 ft | 436 kts | 52° |
| 2026-05-06 04:36 | 39.25697 | -104.18420 | 23437 ft | 440 kts | 52° |
| 2026-05-06 04:36 | 39.27481 | -104.15180 | 23957 ft | 445 kts | 52° |
| 2026-05-06 04:36 | 39.29281 | -104.11900 | 24411 ft | 450 kts | 52° |
| 2026-05-06 04:37 | 39.31076 | -104.08627 | 24872 ft | 454 kts | 52° |
| 2026-05-06 04:37 | 39.32914 | -104.05276 | 25324 ft | 459 kts | 52° |
| 2026-05-06 04:37 | 39.34769 | -104.01890 | 25771 ft | 464 kts | 51° |
| 2026-05-06 04:37 | 39.36641 | -103.98469 | 26215 ft | 468 kts | 51° |
| 2026-05-06 04:38 | 39.38530 | -103.95010 | 26659 ft | 473 kts | 51° |
| 2026-05-06 04:38 | 39.40437 | -103.91516 | 27092 ft | 477 kts | 51° |
| 2026-05-06 04:38 | 39.42362 | -103.87986 | 27527 ft | 482 kts | 51° |
| 2026-05-06 04:38 | 39.44303 | -103.84422 | 27952 ft | 486 kts | 51° |
| 2026-05-06 04:39 | 39.46261 | -103.80824 | 28378 ft | 490 kts | 51° |
| 2026-05-06 04:39 | 39.48170 | -103.77313 | 28784 ft | 494 kts | 51° |
| 2026-05-06 04:39 | 39.49688 | -103.74517 | 29106 ft | 498 kts | 51° |
| 2026-05-06 04:39 | 39.51687 | -103.70830 | 29514 ft | 502 kts | 50° |
| 2026-05-06 04:40 | 39.53700 | -103.67113 | 29927 ft | 506 kts | 50° |
| 2026-05-06 04:40 | 39.55730 | -103.63362 | 30306 ft | 509 kts | 50° |
| 2026-05-06 04:40 | 39.57753 | -103.59619 | 30636 ft | 513 kts | 50° |
| 2026-05-06 04:40 | 39.59807 | -103.55815 | 30952 ft | 517 kts | 50° |
| 2026-05-06 04:41 | 39.61878 | -103.51972 | 31268 ft | 521 kts | 50° |
| 2026-05-06 04:41 | 39.63962 | -103.48104 | 31577 ft | 525 kts | 50° |
| 2026-05-06 04:41 | 39.66060 | -103.44203 | 31898 ft | 529 kts | 50° |
| 2026-05-06 04:41 | 39.68171 | -103.40273 | 32183 ft | 533 kts | 50° |
| 2026-05-06 04:42 | 39.70303 | -103.36299 | 32481 ft | 537 kts | 50° |
| 2026-05-06 04:42 | 39.72447 | -103.32297 | 32768 ft | 541 kts | 49° |
| 2026-05-06 04:42 | 39.74606 | -103.28263 | 33044 ft | 545 kts | 49° |
| 2026-05-06 04:42 | 39.76754 | -103.24245 | 33310 ft | 549 kts | 49° |
| 2026-05-06 04:43 | 39.78943 | -103.20144 | 33593 ft | 553 kts | 49° |
| 2026-05-06 04:43 | 39.81145 | -103.16013 | 33849 ft | 557 kts | 49° |
| 2026-05-06 04:43 | 39.83356 | -103.11862 | 34097 ft | 560 kts | 49° |
| 2026-05-06 04:43 | 39.85573 | -103.07687 | 34198 ft | 562 kts | 49° |
| 2026-05-06 04:44 | 39.87803 | -103.03490 | 34411 ft | 566 kts | 49° |
| 2026-05-06 04:44 | 39.90049 | -102.99256 | 34647 ft | 569 kts | 49° |
| 2026-05-06 04:44 | 39.92301 | -102.95002 | 34956 ft | 569 kts | 49° |
| 2026-05-06 04:44 | 39.94548 | -102.90748 | 35202 ft | 570 kts | 48° |
| 2026-05-06 04:45 | 39.96773 | -102.86537 | 35427 ft | 571 kts | 48° |
| 2026-05-06 04:45 | 39.99024 | -102.82272 | 35657 ft | 571 kts | 48° |
| 2026-05-06 04:45 | 40.01279 | -102.77991 | 35884 ft | 572 kts | 48° |
| 2026-05-06 04:45 | 40.03537 | -102.73696 | 36099 ft | 573 kts | 48° |
| 2026-05-06 04:46 | 40.05793 | -102.69402 | 36338 ft | 573 kts | 48° |
| 2026-05-06 04:46 | 40.08049 | -102.65103 | 36552 ft | 574 kts | 48° |
| 2026-05-06 04:46 | 40.10306 | -102.60793 | 36765 ft | 575 kts | 48° |
| 2026-05-06 04:46 | 40.12343 | -102.56899 | 36945 ft | 575 kts | 48° |
| 2026-05-06 04:47 | 40.14611 | -102.52561 | 37050 ft | 580 kts | 48° |
| 2026-05-06 04:47 | 40.19144 | -102.43860 | 37044 ft | 575 kts | 48° |
| 2026-05-06 04:48 | 40.23661 | -102.35184 | 37041 ft | 578 kts | 48° |
| 2026-05-06 04:48 | 40.28181 | -102.26459 | 37047 ft | 578 kts | 48° |
| 2026-05-06 04:49 | 40.32661 | -102.17797 | 37053 ft | 577 kts | 48° |
| 2026-05-06 04:49 | 40.37161 | -102.09070 | 37056 ft | 577 kts | 48° |
| 2026-05-06 04:50 | 40.41653 | -102.00335 | 37075 ft | 577 kts | 48° |
| 2026-05-06 04:50 | 40.46130 | -101.91602 | 37081 ft | 575 kts | 48° |
| 2026-05-06 04:51 | 40.50565 | -101.82931 | 37091 ft | 574 kts | 48° |
| 2026-05-06 04:51 | 40.55008 | -101.74217 | 37092 ft | 573 kts | 48° |
| 2026-05-06 04:52 | 40.59438 | -101.65505 | 37104 ft | 572 kts | 48° |
| 2026-05-06 04:52 | 40.63852 | -101.56800 | 37087 ft | 571 kts | 49° |
| 2026-05-06 04:53 | 40.68254 | -101.48095 | 37100 ft | 570 kts | 49° |
| 2026-05-06 04:53 | 40.72643 | -101.39391 | 37085 ft | 569 kts | 49° |
| 2026-05-06 04:54 | 40.77008 | -101.30709 | 37096 ft | 568 kts | 49° |
| 2026-05-06 04:54 | 40.80812 | -101.23125 | 37084 ft | 567 kts | 49° |
| 2026-05-06 04:55 | 40.85153 | -101.14445 | 37101 ft | 565 kts | 49° |
| 2026-05-06 04:55 | 40.89198 | -101.06337 | 37089 ft | 564 kts | 49° |
| 2026-05-06 04:56 | 40.93504 | -100.97680 | 37100 ft | 563 kts | 49° |
| 2026-05-06 04:56 | 40.97798 | -100.89024 | 37094 ft | 562 kts | 49° |
| 2026-05-06 04:57 | 41.02057 | -100.80415 | 37107 ft | 561 kts | 49° |
| 2026-05-06 04:57 | 41.06104 | -100.71514 | 37118 ft | 568 kts | 57° |
| 2026-05-06 04:58 | 41.09708 | -100.62189 | 37101 ft | 568 kts | 56° |
| 2026-05-06 04:58 | 41.13293 | -100.52856 | 37104 ft | 568 kts | 56° |
| 2026-05-06 04:59 | 41.16877 | -100.43507 | 37101 ft | 568 kts | 56° |
| 2026-05-06 04:59 | 41.20428 | -100.34214 | 37096 ft | 567 kts | 57° |
| 2026-05-06 05:00 | 41.23991 | -100.24856 | 37100 ft | 568 kts | 57° |
| 2026-05-06 05:00 | 41.27555 | -100.15470 | 37087 ft | 568 kts | 57° |
| 2026-05-06 05:01 | 41.31102 | -100.06094 | 37092 ft | 568 kts | 57° |
| 2026-05-06 05:01 | 41.34630 | -99.96743 | 37085 ft | 568 kts | 57° |
| 2026-05-06 05:02 | 41.38164 | -99.87341 | 37094 ft | 568 kts | 57° |
| 2026-05-06 05:02 | 41.41696 | -99.77917 | 37079 ft | 568 kts | 57° |
| 2026-05-06 05:03 | 41.45220 | -99.68479 | 37088 ft | 569 kts | 57° |
| 2026-05-06 05:03 | 41.48751 | -99.58997 | 37104 ft | 570 kts | 57° |
| 2026-05-06 05:04 | 41.52253 | -99.49555 | 37095 ft | 569 kts | 57° |
| 2026-05-06 05:04 | 41.55758 | -99.40080 | 37098 ft | 568 kts | 57° |
| 2026-05-06 05:05 | 41.59250 | -99.30604 | 37093 ft | 568 kts | 57° |
| 2026-05-06 05:05 | 41.62719 | -99.21165 | 37091 ft | 568 kts | 57° |
| 2026-05-06 05:06 | 41.66199 | -99.11659 | 37084 ft | 568 kts | 57° |
| 2026-05-06 05:06 | 41.69668 | -99.02154 | 37087 ft | 568 kts | 57° |
| 2026-05-06 05:07 | 41.73135 | -98.92623 | 37077 ft | 568 kts | 58° |
| 2026-05-06 05:07 | 41.76596 | -98.83078 | 37095 ft | 569 kts | 58° |
| 2026-05-06 05:08 | 41.79655 | -98.74612 | 37094 ft | 569 kts | 58° |
| 2026-05-06 05:08 | 41.82716 | -98.66116 | 37107 ft | 569 kts | 58° |
| 2026-05-06 05:09 | 41.86131 | -98.56607 | 37107 ft | 569 kts | 58° |
| 2026-05-06 05:09 | 41.89552 | -98.47049 | 37121 ft | 568 kts | 58° |
| 2026-05-06 05:10 | 41.92967 | -98.37475 | 37109 ft | 567 kts | 58° |
| 2026-05-06 05:10 | 41.96372 | -98.27898 | 37120 ft | 567 kts | 58° |
| 2026-05-06 05:11 | 41.99760 | -98.18335 | 37107 ft | 566 kts | 59° |
| 2026-05-06 05:11 | 42.03145 | -98.08749 | 37116 ft | 566 kts | 59° |
| 2026-05-06 05:12 | 42.06492 | -97.99237 | 37108 ft | 566 kts | 59° |
| 2026-05-06 05:12 | 42.09853 | -97.89655 | 37116 ft | 565 kts | 59° |
| 2026-05-06 05:13 | 42.13201 | -97.80072 | 37112 ft | 565 kts | 59° |
| 2026-05-06 05:13 | 42.16545 | -97.70474 | 37114 ft | 565 kts | 59° |
| 2026-05-06 05:14 | 42.19877 | -97.60872 | 37112 ft | 565 kts | 59° |
| 2026-05-06 05:14 | 42.23198 | -97.51271 | 37113 ft | 565 kts | 59° |
| 2026-05-06 05:15 | 42.26515 | -97.41648 | 37108 ft | 565 kts | 59° |
| 2026-05-06 05:15 | 42.29678 | -97.32440 | 37105 ft | 564 kts | 60° |
| 2026-05-06 05:16 | 42.32979 | -97.22801 | 37092 ft | 564 kts | 60° |
| 2026-05-06 05:16 | 42.36267 | -97.13161 | 37093 ft | 564 kts | 60° |
| 2026-05-06 05:17 | 42.39548 | -97.03509 | 37085 ft | 565 kts | 60° |
| 2026-05-06 05:17 | 42.42265 | -96.95491 | 37080 ft | 565 kts | 60° |
| 2026-05-06 05:18 | 42.45531 | -96.85823 | 37090 ft | 564 kts | 60° |
| 2026-05-06 05:18 | 42.48788 | -96.76148 | 37091 ft | 564 kts | 60° |
| 2026-05-06 05:19 | 42.52037 | -96.66460 | 37079 ft | 564 kts | 60° |
| 2026-05-06 05:19 | 42.55275 | -96.56770 | 37077 ft | 564 kts | 60° |
| 2026-05-06 05:20 | 42.58510 | -96.47057 | 37067 ft | 564 kts | 61° |
| 2026-05-06 05:20 | 42.61713 | -96.37403 | 37060 ft | 564 kts | 61° |
| 2026-05-06 05:21 | 42.64928 | -96.27680 | 37054 ft | 564 kts | 61° |
| 2026-05-06 05:21 | 42.68135 | -96.17944 | 37042 ft | 564 kts | 61° |
| 2026-05-06 05:22 | 42.71335 | -96.08200 | 37050 ft | 563 kts | 61° |
| 2026-05-06 05:22 | 42.74521 | -95.98459 | 37057 ft | 563 kts | 61° |
| 2026-05-06 05:23 | 42.77696 | -95.88715 | 37063 ft | 563 kts | 62° |
| 2026-05-06 05:23 | 42.82445 | -95.74078 | 37062 ft | 563 kts | 62° |
| 2026-05-06 05:24 | 42.85587 | -95.64348 | 37059 ft | 563 kts | 62° |
| 2026-05-06 05:24 | 42.88736 | -95.54563 | 37058 ft | 563 kts | 62° |
| 2026-05-06 05:25 | 42.91879 | -95.44757 | 37056 ft | 563 kts | 62° |
| 2026-05-06 05:25 | 42.94994 | -95.35007 | 37056 ft | 563 kts | 62° |
| 2026-05-06 05:26 | 42.98118 | -95.25189 | 37057 ft | 563 kts | 62° |
| 2026-05-06 05:26 | 43.01231 | -95.15374 | 37049 ft | 563 kts | 62° |
| 2026-05-06 05:27 | 43.04337 | -95.05540 | 37050 ft | 563 kts | 63° |
| 2026-05-06 05:27 | 43.07412 | -94.95768 | 37054 ft | 562 kts | 63° |
| 2026-05-06 05:28 | 43.10504 | -94.85908 | 37058 ft | 562 kts | 63° |
| 2026-05-06 05:28 | 43.13580 | -94.76062 | 37052 ft | 562 kts | 63° |
| 2026-05-06 05:29 | 43.16643 | -94.66217 | 37042 ft | 562 kts | 63° |
| 2026-05-06 05:29 | 43.19679 | -94.56428 | 37048 ft | 561 kts | 63° |
| 2026-05-06 05:30 | 43.22387 | -94.47661 | 37039 ft | 561 kts | 63° |
| 2026-05-06 05:30 | 43.25425 | -94.37792 | 37040 ft | 561 kts | 63° |
| 2026-05-06 05:31 | 43.28459 | -94.27898 | 37041 ft | 561 kts | 63° |
| 2026-05-06 05:31 | 43.31480 | -94.18011 | 37037 ft | 561 kts | 64° |
| 2026-05-06 05:32 | 43.34472 | -94.08181 | 37037 ft | 561 kts | 64° |
| 2026-05-06 05:32 | 43.37474 | -93.98279 | 37038 ft | 561 kts | 64° |
| 2026-05-06 05:33 | 43.40469 | -93.88360 | 37035 ft | 561 kts | 64° |
| 2026-05-06 05:33 | 43.43461 | -93.78427 | 37022 ft | 563 kts | 65° |
| 2026-05-06 05:34 | 43.46453 | -93.68428 | 37022 ft | 569 kts | 66° |
| 2026-05-06 05:34 | 43.49465 | -93.58348 | 37015 ft | 569 kts | 66° |
| 2026-05-06 05:35 | 43.52470 | -93.48237 | 37011 ft | 569 kts | 66° |
| 2026-05-06 05:35 | 43.55447 | -93.38187 | 37010 ft | 569 kts | 66° |
| 2026-05-06 05:36 | 43.58432 | -93.28068 | 37006 ft | 569 kts | 66° |
| 2026-05-06 05:36 | 43.61410 | -93.17933 | 37008 ft | 569 kts | 66° |
| 2026-05-06 05:37 | 43.64360 | -93.07854 | 36992 ft | 569 kts | 66° |
| 2026-05-06 05:37 | 43.67204 | -92.98097 | 36989 ft | 569 kts | 66° |
| 2026-05-06 05:38 | 43.70157 | -92.87929 | 36988 ft | 569 kts | 66° |
| 2026-05-06 05:38 | 43.73098 | -92.77758 | 36993 ft | 568 kts | 66° |
| 2026-05-06 05:39 | 43.76005 | -92.67666 | 36992 ft | 568 kts | 66° |
| 2026-05-06 05:39 | 43.78917 | -92.57506 | 36993 ft | 568 kts | 67° |
| 2026-05-06 05:40 | 43.81703 | -92.47263 | 36991 ft | 568 kts | 68° |
| 2026-05-06 05:40 | 43.84516 | -92.37040 | 36989 ft | 568 kts | 67° |
| 2026-05-06 05:41 | 43.87312 | -92.26775 | 36994 ft | 568 kts | 68° |
| 2026-05-06 05:41 | 43.90077 | -92.16591 | 36988 ft | 567 kts | 67° |
| 2026-05-06 05:42 | 43.92850 | -92.06346 | 36989 ft | 567 kts | 68° |
| 2026-05-06 05:42 | 43.95608 | -91.96093 | 36985 ft | 567 kts | 68° |
| 2026-05-06 05:43 | 43.98367 | -91.85815 | 36986 ft | 567 kts | 68° |
| 2026-05-06 05:43 | 44.01112 | -91.75527 | 36987 ft | 568 kts | 68° |
| 2026-05-06 05:44 | 44.03854 | -91.65216 | 36986 ft | 568 kts | 68° |
| 2026-05-06 05:44 | 44.06561 | -91.54986 | 36987 ft | 567 kts | 68° |
| 2026-05-06 05:45 | 44.08991 | -91.45772 | 36987 ft | 567 kts | 68° |
| 2026-05-06 05:45 | 44.11600 | -91.35837 | 36969 ft | 567 kts | 68° |
| 2026-05-06 05:46 | 44.14298 | -91.25517 | 36971 ft | 567 kts | 68° |
| 2026-05-06 05:46 | 44.16986 | -91.15190 | 36975 ft | 567 kts | 68° |
| 2026-05-06 05:47 | 44.19647 | -91.04924 | 36972 ft | 567 kts | 68° |
| 2026-05-06 05:47 | 44.22318 | -90.94572 | 36963 ft | 567 kts | 68° |
| 2026-05-06 05:48 | 44.24976 | -90.84228 | 36969 ft | 566 kts | 69° |
| 2026-05-06 05:48 | 44.27624 | -90.73876 | 36968 ft | 566 kts | 69° |
| 2026-05-06 05:49 | 44.30262 | -90.63517 | 36968 ft | 566 kts | 69° |
| 2026-05-06 05:49 | 44.32890 | -90.53152 | 36969 ft | 566 kts | 69° |
| 2026-05-06 05:50 | 44.35492 | -90.42840 | 36966 ft | 566 kts | 69° |
| 2026-05-06 05:50 | 44.38105 | -90.32441 | 36958 ft | 566 kts | 69° |
| 2026-05-06 05:51 | 44.40707 | -90.22037 | 36951 ft | 566 kts | 69° |
| 2026-05-06 05:51 | 44.43303 | -90.11614 | 36949 ft | 566 kts | 69° |
| 2026-05-06 05:52 | 44.45721 | -90.01860 | 36949 ft | 566 kts | 69° |
| 2026-05-06 05:52 | 44.48297 | -89.91422 | 36949 ft | 566 kts | 69° |
| 2026-05-06 05:53 | 44.50864 | -89.80974 | 36948 ft | 566 kts | 69° |
| 2026-05-06 05:53 | 44.53400 | -89.70606 | 36954 ft | 565 kts | 69° |
| 2026-05-06 05:54 | 44.55941 | -89.60166 | 36954 ft | 565 kts | 69° |
| 2026-05-06 05:54 | 44.58476 | -89.49706 | 36954 ft | 565 kts | 70° |
| 2026-05-06 05:55 | 44.61001 | -89.39237 | 36952 ft | 566 kts | 70° |
| 2026-05-06 05:55 | 44.63501 | -89.28826 | 36956 ft | 566 kts | 70° |
| 2026-05-06 05:56 | 44.66007 | -89.18336 | 36963 ft | 566 kts | 70° |
| 2026-05-06 05:56 | 44.68503 | -89.07842 | 36969 ft | 566 kts | 70° |
| 2026-05-06 05:57 | 44.70993 | -88.97323 | 36968 ft | 566 kts | 70° |
| 2026-05-06 05:57 | 44.73452 | -88.86890 | 36966 ft | 566 kts | 70° |
| 2026-05-06 05:58 | 44.75924 | -88.76347 | 36963 ft | 566 kts | 70° |
| 2026-05-06 05:58 | 44.78378 | -88.65830 | 36954 ft | 565 kts | 70° |
| 2026-05-06 05:59 | 44.80822 | -88.55307 | 36952 ft | 565 kts | 71° |
| 2026-05-06 05:59 | 44.83255 | -88.44780 | 36954 ft | 565 kts | 71° |
| 2026-05-06 06:00 | 44.85667 | -88.34297 | 36958 ft | 564 kts | 71° |
| 2026-05-06 06:00 | 44.88082 | -88.23747 | 36960 ft | 565 kts | 71° |
| 2026-05-06 06:01 | 44.90474 | -88.13243 | 36954 ft | 565 kts | 71° |
| 2026-05-06 06:01 | 44.92872 | -88.02666 | 36950 ft | 565 kts | 71° |
| 2026-05-06 06:02 | 44.95262 | -87.92072 | 36950 ft | 565 kts | 71° |
| 2026-05-06 06:02 | 44.97638 | -87.81489 | 36947 ft | 566 kts | 71° |
| 2026-05-06 06:03 | 44.99996 | -87.70933 | 36967 ft | 566 kts | 71° |
| 2026-05-06 06:03 | 45.02356 | -87.60314 | 36969 ft | 565 kts | 71° |
| 2026-05-06 06:04 | 45.04705 | -87.49692 | 36969 ft | 565 kts | 72° |
| 2026-05-06 06:04 | 45.06649 | -87.40859 | 36971 ft | 566 kts | 72° |
| 2026-05-06 06:05 | 45.09360 | -87.28486 | 36968 ft | 566 kts | 72° |
| 2026-05-06 06:05 | 45.11290 | -87.19629 | 36969 ft | 566 kts | 72° |
| 2026-05-06 06:06 | 45.13608 | -87.08944 | 36973 ft | 566 kts | 72° |
| 2026-05-06 06:06 | 45.15913 | -86.98263 | 36976 ft | 566 kts | 72° |
| 2026-05-06 06:07 | 45.18188 | -86.87666 | 36975 ft | 566 kts | 72° |
| 2026-05-06 06:07 | 45.20469 | -86.76988 | 36971 ft | 566 kts | 72° |
| 2026-05-06 06:08 | 45.22745 | -86.66275 | 36975 ft | 566 kts | 72° |
| 2026-05-06 06:08 | 45.25011 | -86.55556 | 36971 ft | 567 kts | 72° |
| 2026-05-06 06:09 | 45.27251 | -86.44907 | 36971 ft | 567 kts | 73° |
| 2026-05-06 06:09 | 45.29496 | -86.34177 | 36966 ft | 567 kts | 73° |
| 2026-05-06 06:10 | 45.31730 | -86.23439 | 36967 ft | 567 kts | 73° |
| 2026-05-06 06:10 | 45.33956 | -86.12685 | 36967 ft | 567 kts | 73° |
| 2026-05-06 06:11 | 45.36160 | -86.01981 | 36967 ft | 566 kts | 73° |
| 2026-05-06 06:11 | 45.38366 | -85.91208 | 36966 ft | 567 kts | 73° |
| 2026-05-06 06:12 | 45.40562 | -85.80428 | 36963 ft | 567 kts | 73° |
| 2026-05-06 06:12 | 45.42753 | -85.69617 | 36959 ft | 568 kts | 73° |
| 2026-05-06 06:13 | 45.44930 | -85.58812 | 36958 ft | 568 kts | 73° |
| 2026-05-06 06:13 | 45.47099 | -85.47990 | 36957 ft | 568 kts | 73° |
| 2026-05-06 06:14 | 45.49257 | -85.37162 | 36955 ft | 568 kts | 74° |
| 2026-05-06 06:14 | 45.51167 | -85.27531 | 36953 ft | 568 kts | 74° |
| 2026-05-06 06:15 | 45.52766 | -85.19427 | 36953 ft | 568 kts | 74° |
| 2026-05-06 06:15 | 45.54820 | -85.08970 | 36950 ft | 569 kts | 74° |
| 2026-05-06 06:16 | 45.56951 | -84.98061 | 36947 ft | 569 kts | 74° |
| 2026-05-06 06:16 | 45.59070 | -84.87157 | 36942 ft | 569 kts | 74° |
| 2026-05-06 06:17 | 45.61164 | -84.76315 | 36946 ft | 570 kts | 74° |
| 2026-05-06 06:17 | 45.63260 | -84.65401 | 36930 ft | 570 kts | 75° |
| 2026-05-06 06:18 | 45.65265 | -84.54431 | 36937 ft | 570 kts | 76° |
| 2026-05-06 06:18 | 45.67273 | -84.43425 | 36938 ft | 571 kts | 75° |
| 2026-05-06 06:19 | 45.69258 | -84.32501 | 36945 ft | 571 kts | 76° |
| 2026-05-06 06:19 | 45.71241 | -84.21474 | 36945 ft | 571 kts | 75° |
| 2026-05-06 06:20 | 45.73221 | -84.10451 | 36956 ft | 571 kts | 76° |
| 2026-05-06 06:20 | 45.75184 | -83.99409 | 36944 ft | 572 kts | 76° |
| 2026-05-06 06:21 | 45.77129 | -83.88440 | 36939 ft | 572 kts | 76° |
| 2026-05-06 06:21 | 45.79073 | -83.77379 | 36938 ft | 572 kts | 76° |
| 2026-05-06 06:22 | 45.80942 | -83.66695 | 36929 ft | 572 kts | 76° |
| 2026-05-06 06:22 | 45.82868 | -83.55610 | 36941 ft | 573 kts | 76° |
| 2026-05-06 06:23 | 45.84573 | -83.45746 | 36935 ft | 573 kts | 76° |
| 2026-05-06 06:23 | 45.86481 | -83.34635 | 36944 ft | 573 kts | 76° |
| 2026-05-06 06:24 | 45.88380 | -83.23508 | 36944 ft | 574 kts | 76° |
| 2026-05-06 06:24 | 45.90258 | -83.12437 | 36942 ft | 574 kts | 76° |
| 2026-05-06 06:25 | 45.92135 | -83.01294 | 36938 ft | 574 kts | 76° |
| 2026-05-06 06:26 | 45.94935 | -82.84545 | 36915 ft | 574 kts | 77° |
| 2026-05-06 06:26 | 45.96784 | -82.73392 | 36912 ft | 573 kts | 77° |
| 2026-05-06 06:27 | 45.98608 | -82.62316 | 36902 ft | 573 kts | 77° |
| 2026-05-06 06:27 | 46.00436 | -82.51141 | 36903 ft | 573 kts | 77° |
| 2026-05-06 06:28 | 46.02255 | -82.39950 | 36910 ft | 573 kts | 77° |
| 2026-05-06 06:28 | 46.04059 | -82.28777 | 36906 ft | 573 kts | 77° |
| 2026-05-06 06:29 | 46.05844 | -82.17650 | 36905 ft | 573 kts | 77° |
| 2026-05-06 06:29 | 46.07627 | -82.06457 | 36909 ft | 573 kts | 77° |
| 2026-05-06 06:30 | 46.09400 | -81.95250 | 36900 ft | 573 kts | 77° |
| 2026-05-06 06:30 | 46.10967 | -81.85287 | 36895 ft | 573 kts | 77° |
| 2026-05-06 06:31 | 46.12719 | -81.74071 | 36896 ft | 573 kts | 77° |
| 2026-05-06 06:31 | 46.14461 | -81.62834 | 36896 ft | 573 kts | 78° |
| 2026-05-06 06:32 | 46.16180 | -81.51682 | 36898 ft | 573 kts | 78° |
| 2026-05-06 06:32 | 46.17898 | -81.40447 | 36883 ft | 573 kts | 78° |
| 2026-05-06 06:33 | 46.19610 | -81.29179 | 36884 ft | 573 kts | 78° |
| 2026-05-06 06:33 | 46.21305 | -81.17935 | 36889 ft | 573 kts | 78° |
| 2026-05-06 06:34 | 46.22980 | -81.06753 | 36875 ft | 573 kts | 78° |
| 2026-05-06 06:34 | 46.24656 | -80.95479 | 36873 ft | 573 kts | 78° |
| 2026-05-06 06:35 | 46.26319 | -80.84211 | 36867 ft | 573 kts | 78° |
| 2026-05-06 06:35 | 46.27972 | -80.72935 | 36862 ft | 573 kts | 79° |
| 2026-05-06 06:36 | 46.29613 | -80.61650 | 36861 ft | 573 kts | 79° |
| 2026-05-06 06:36 | 46.31246 | -80.50344 | 36857 ft | 573 kts | 79° |
| 2026-05-06 06:37 | 46.32855 | -80.39118 | 36857 ft | 574 kts | 79° |
| 2026-05-06 06:37 | 46.34465 | -80.27796 | 36860 ft | 574 kts | 79° |
| 2026-05-06 06:38 | 46.36059 | -80.16508 | 36861 ft | 574 kts | 79° |
| 2026-05-06 06:38 | 46.37648 | -80.05171 | 36858 ft | 574 kts | 79° |
| 2026-05-06 06:39 | 46.39224 | -79.93838 | 36847 ft | 574 kts | 79° |
| 2026-05-06 06:39 | 46.40781 | -79.82555 | 36850 ft | 574 kts | 79° |
| 2026-05-06 06:40 | 46.42335 | -79.71200 | 36835 ft | 574 kts | 80° |
| 2026-05-06 06:40 | 46.43879 | -79.59834 | 36844 ft | 575 kts | 80° |
| 2026-05-06 06:41 | 46.45415 | -79.48439 | 36837 ft | 575 kts | 80° |
| 2026-05-06 06:41 | 46.46937 | -79.37062 | 36836 ft | 575 kts | 80° |
| 2026-05-06 06:42 | 46.48439 | -79.25733 | 36837 ft | 575 kts | 80° |
| 2026-05-06 06:42 | 46.49943 | -79.14302 | 36842 ft | 576 kts | 80° |
| 2026-05-06 06:43 | 46.51439 | -79.02845 | 36849 ft | 576 kts | 81° |
| 2026-05-06 06:43 | 46.52918 | -78.91417 | 36854 ft | 576 kts | 81° |
| 2026-05-06 06:44 | 46.54379 | -78.80040 | 36858 ft | 577 kts | 81° |
| 2026-05-06 06:44 | 46.55838 | -78.68578 | 36853 ft | 577 kts | 81° |
| 2026-05-06 06:45 | 46.57202 | -78.57778 | 36853 ft | 577 kts | 81° |
| 2026-05-06 06:45 | 46.58571 | -78.46858 | 36852 ft | 577 kts | 81° |
| 2026-05-06 06:46 | 46.59998 | -78.35369 | 36852 ft | 577 kts | 81° |
| 2026-05-06 06:46 | 46.61415 | -78.23864 | 36854 ft | 578 kts | 81° |
| 2026-05-06 06:47 | 46.62821 | -78.12347 | 36855 ft | 578 kts | 81° |
| 2026-05-06 06:47 | 46.64216 | -78.00826 | 36852 ft | 578 kts | 81° |
| 2026-05-06 06:48 | 46.65600 | -77.89292 | 36850 ft | 578 kts | 82° |
| 2026-05-06 06:48 | 46.66966 | -77.77797 | 36848 ft | 578 kts | 82° |
| 2026-05-06 06:49 | 46.68326 | -77.66263 | 36847 ft | 578 kts | 82° |
| 2026-05-06 06:49 | 46.69674 | -77.54719 | 36842 ft | 578 kts | 82° |
| 2026-05-06 06:50 | 46.71011 | -77.43168 | 36836 ft | 578 kts | 82° |
| 2026-05-06 06:50 | 46.72336 | -77.31605 | 36831 ft | 578 kts | 82° |
| 2026-05-06 06:51 | 46.73651 | -77.20029 | 36835 ft | 579 kts | 82° |
| 2026-05-06 06:51 | 46.74948 | -77.08504 | 36831 ft | 579 kts | 82° |
| 2026-05-06 06:52 | 46.76242 | -76.96896 | 36830 ft | 579 kts | 82° |
| 2026-05-06 06:52 | 46.77511 | -76.85407 | 36828 ft | 579 kts | 82° |
| 2026-05-06 06:53 | 46.78742 | -76.74146 | 36830 ft | 579 kts | 82° |
| 2026-05-06 06:53 | 46.80001 | -76.62523 | 36825 ft | 578 kts | 83° |
| 2026-05-06 06:54 | 46.81036 | -76.52886 | 36832 ft | 578 kts | 83° |
| 2026-05-06 06:54 | 46.82270 | -76.41287 | 36829 ft | 578 kts | 83° |
| 2026-05-06 06:55 | 46.83691 | -76.27781 | 36829 ft | 578 kts | 83° |
| 2026-05-06 06:55 | 46.84704 | -76.18055 | 36839 ft | 578 kts | 83° |
| 2026-05-06 06:56 | 46.85896 | -76.06507 | 36832 ft | 577 kts | 83° |
| 2026-05-06 06:56 | 46.87080 | -75.94913 | 36828 ft | 577 kts | 83° |
| 2026-05-06 06:57 | 46.88260 | -75.83281 | 36823 ft | 577 kts | 82° |
| 2026-05-06 06:57 | 46.90086 | -75.71926 | 36835 ft | 578 kts | 77° |
| 2026-05-06 06:58 | 46.92015 | -75.60515 | 36841 ft | 578 kts | 77° |
| 2026-05-06 06:58 | 46.93921 | -75.49075 | 36839 ft | 578 kts | 77° |
| 2026-05-06 06:59 | 46.95822 | -75.37650 | 36839 ft | 577 kts | 77° |
| 2026-05-06 06:59 | 46.97704 | -75.26223 | 36833 ft | 577 kts | 77° |
| 2026-05-06 07:00 | 46.99570 | -75.14845 | 36832 ft | 576 kts | 77° |
| 2026-05-06 07:00 | 47.01427 | -75.03424 | 36826 ft | 576 kts | 77° |
| 2026-05-06 07:01 | 47.03272 | -74.92010 | 36825 ft | 575 kts | 78° |
| 2026-05-06 07:01 | 47.05107 | -74.80578 | 36821 ft | 575 kts | 78° |
| 2026-05-06 07:02 | 47.06915 | -74.69234 | 36823 ft | 574 kts | 78° |
| 2026-05-06 07:02 | 47.08725 | -74.57800 | 36821 ft | 574 kts | 78° |
| 2026-05-06 07:03 | 47.10522 | -74.46364 | 36825 ft | 574 kts | 78° |
| 2026-05-06 07:03 | 47.12307 | -74.34934 | 36823 ft | 574 kts | 78° |
| 2026-05-06 07:04 | 47.14076 | -74.23522 | 36828 ft | 574 kts | 78° |
| 2026-05-06 07:04 | 47.15838 | -74.12070 | 36826 ft | 574 kts | 78° |
| 2026-05-06 07:05 | 47.17590 | -74.00606 | 36826 ft | 574 kts | 79° |
| 2026-05-06 07:05 | 47.19330 | -73.89136 | 36825 ft | 574 kts | 79° |
| 2026-05-06 07:06 | 47.21046 | -73.77745 | 36826 ft | 574 kts | 79° |
| 2026-05-06 07:06 | 47.22763 | -73.66260 | 36819 ft | 574 kts | 79° |
| 2026-05-06 07:07 | 47.24468 | -73.54775 | 36822 ft | 574 kts | 79° |
| 2026-05-06 07:07 | 47.26099 | -73.43700 | 36819 ft | 574 kts | 79° |
| 2026-05-06 07:08 | 47.27781 | -73.32205 | 36819 ft | 574 kts | 79° |
| 2026-05-06 07:08 | 47.29450 | -73.20706 | 36815 ft | 574 kts | 79° |
| 2026-05-06 07:09 | 47.31102 | -73.09244 | 36816 ft | 573 kts | 79° |
| 2026-05-06 07:09 | 47.32747 | -72.97743 | 36810 ft | 573 kts | 79° |
| 2026-05-06 07:10 | 47.34377 | -72.86252 | 36809 ft | 572 kts | 79° |
| 2026-05-06 07:10 | 47.35998 | -72.74745 | 36808 ft | 573 kts | 80° |
| 2026-05-06 07:11 | 47.37608 | -72.63221 | 36797 ft | 573 kts | 80° |
| 2026-05-06 07:11 | 47.39195 | -72.51776 | 36803 ft | 573 kts | 80° |
| 2026-05-06 07:12 | 47.40781 | -72.40250 | 36793 ft | 572 kts | 80° |
| 2026-05-06 07:12 | 47.42354 | -72.28725 | 36788 ft | 572 kts | 80° |
| 2026-05-06 07:13 | 47.43916 | -72.17186 | 36781 ft | 571 kts | 80° |
| 2026-05-06 07:13 | 47.45463 | -72.05676 | 36771 ft | 571 kts | 80° |
| 2026-05-06 07:14 | 47.46834 | -71.95385 | 36773 ft | 570 kts | 80° |
| 2026-05-06 07:14 | 47.48347 | -71.83952 | 36760 ft | 570 kts | 80° |
| 2026-05-06 07:15 | 47.49688 | -71.73741 | 36761 ft | 569 kts | 80° |
| 2026-05-06 07:15 | 47.51188 | -71.62222 | 36753 ft | 568 kts | 80° |
| 2026-05-06 07:16 | 47.52663 | -71.50805 | 36761 ft | 568 kts | 80° |
| 2026-05-06 07:16 | 47.54135 | -71.39317 | 36748 ft | 567 kts | 81° |
| 2026-05-06 07:17 | 47.55590 | -71.27860 | 36741 ft | 566 kts | 81° |
| 2026-05-06 07:17 | 47.57032 | -71.16418 | 36745 ft | 565 kts | 81° |
| 2026-05-06 07:18 | 47.58460 | -71.04983 | 36753 ft | 564 kts | 81° |
| 2026-05-06 07:18 | 47.59867 | -70.93625 | 36766 ft | 564 kts | 81° |
| 2026-05-06 07:19 | 47.61272 | -70.82185 | 36774 ft | 563 kts | 81° |
| 2026-05-06 07:19 | 47.62663 | -70.70765 | 36786 ft | 563 kts | 81° |
| 2026-05-06 07:20 | 47.64042 | -70.59339 | 36773 ft | 562 kts | 81° |
| 2026-05-06 07:20 | 47.65398 | -70.48000 | 36777 ft | 561 kts | 81° |
| 2026-05-06 07:21 | 47.66701 | -70.37013 | 36769 ft | 560 kts | 82° |
| 2026-05-06 07:21 | 47.68041 | -70.25622 | 36769 ft | 560 kts | 82° |
| 2026-05-06 07:22 | 47.69368 | -70.14233 | 36774 ft | 559 kts | 82° |
| 2026-05-06 07:22 | 47.70681 | -70.02864 | 36774 ft | 558 kts | 82° |
| 2026-05-06 07:23 | 47.71984 | -69.91478 | 36767 ft | 558 kts | 82° |
| 2026-05-06 07:23 | 47.73267 | -69.80157 | 36766 ft | 557 kts | 82° |
| 2026-05-06 07:24 | 47.74547 | -69.68771 | 36775 ft | 557 kts | 82° |
| 2026-05-06 07:24 | 47.75969 | -69.57469 | 36789 ft | 557 kts | 72° |
| 2026-05-06 07:25 | 47.78356 | -69.46545 | 36788 ft | 559 kts | 72° |
| 2026-05-06 07:25 | 47.80774 | -69.35558 | 36787 ft | 558 kts | 72° |
| 2026-05-06 07:26 | 47.83159 | -69.24569 | 36790 ft | 558 kts | 72° |
| 2026-05-06 07:26 | 47.85547 | -69.13573 | 36796 ft | 558 kts | 73° |
| 2026-05-06 07:27 | 47.87915 | -69.02570 | 36793 ft | 558 kts | 73° |
| 2026-05-06 07:27 | 47.90278 | -68.91553 | 36792 ft | 558 kts | 73° |
| 2026-05-06 07:28 | 47.92630 | -68.80516 | 36796 ft | 558 kts | 73° |
| 2026-05-06 07:28 | 47.96126 | -68.64012 | 36788 ft | 558 kts | 73° |
| 2026-05-06 07:29 | 47.98452 | -68.52947 | 36790 ft | 558 kts | 73° |
| 2026-05-06 07:29 | 48.00765 | -68.41894 | 36790 ft | 557 kts | 73° |
| 2026-05-06 07:30 | 48.03065 | -68.30836 | 36777 ft | 557 kts | 73° |
| 2026-05-06 07:30 | 48.05354 | -68.19769 | 36773 ft | 557 kts | 73° |
| 2026-05-06 07:31 | 48.07616 | -68.08775 | 36771 ft | 556 kts | 74° |
| 2026-05-06 07:31 | 48.09883 | -67.97699 | 36773 ft | 556 kts | 74° |
| 2026-05-06 07:32 | 48.12136 | -67.86625 | 36769 ft | 556 kts | 74° |
| 2026-05-06 07:32 | 48.14380 | -67.75533 | 36778 ft | 556 kts | 74° |
| 2026-05-06 07:33 | 48.16612 | -67.64437 | 36781 ft | 556 kts | 74° |
| 2026-05-06 07:33 | 48.18822 | -67.53394 | 36775 ft | 556 kts | 74° |
| 2026-05-06 07:34 | 48.21030 | -67.42292 | 36770 ft | 555 kts | 75° |
| 2026-05-06 07:34 | 48.23225 | -67.31196 | 36768 ft | 555 kts | 75° |
| 2026-05-06 07:35 | 48.25406 | -67.20103 | 36776 ft | 554 kts | 75° |
| 2026-05-06 07:35 | 48.27345 | -67.10191 | 36770 ft | 554 kts | 75° |
| 2026-05-06 07:36 | 48.29264 | -67.00328 | 36764 ft | 553 kts | 75° |
| 2026-05-06 07:36 | 48.31396 | -66.89311 | 36766 ft | 552 kts | 75° |
| 2026-05-06 07:37 | 48.33530 | -66.78219 | 36758 ft | 552 kts | 75° |
| 2026-05-06 07:37 | 48.35649 | -66.67141 | 36763 ft | 551 kts | 76° |
| 2026-05-06 07:38 | 48.37757 | -66.56058 | 36758 ft | 550 kts | 76° |
| 2026-05-06 07:38 | 48.39848 | -66.44994 | 36760 ft | 550 kts | 76° |
| 2026-05-06 07:39 | 48.41916 | -66.33995 | 36763 ft | 548 kts | 76° |
| 2026-05-06 07:39 | 48.43980 | -66.22944 | 36764 ft | 548 kts | 76° |
| 2026-05-06 07:40 | 48.46034 | -66.11888 | 36758 ft | 547 kts | 76° |
| 2026-05-06 07:40 | 48.48074 | -66.00834 | 36761 ft | 547 kts | 76° |
| 2026-05-06 07:41 | 48.50103 | -65.89783 | 36758 ft | 547 kts | 77° |
| 2026-05-06 07:41 | 48.52121 | -65.78715 | 36764 ft | 547 kts | 77° |
| 2026-05-06 07:42 | 48.54114 | -65.67725 | 36756 ft | 546 kts | 77° |
| 2026-05-06 07:42 | 48.56107 | -65.56666 | 36740 ft | 546 kts | 77° |
| 2026-05-06 07:43 | 48.58092 | -65.45583 | 36735 ft | 545 kts | 77° |
| 2026-05-06 07:43 | 48.59505 | -65.37651 | 36743 ft | 544 kts | 77° |
| 2026-05-06 07:44 | 48.61471 | -65.26559 | 36739 ft | 543 kts | 77° |
| 2026-05-06 07:44 | 48.63415 | -65.15518 | 36741 ft | 543 kts | 77° |
| 2026-05-06 07:45 | 48.65349 | -65.04475 | 36735 ft | 543 kts | 77° |
| 2026-05-06 07:45 | 48.67269 | -64.93437 | 36736 ft | 542 kts | 78° |
| 2026-05-06 07:46 | 48.69167 | -64.82455 | 36738 ft | 542 kts | 78° |
| 2026-05-06 07:46 | 48.71064 | -64.71415 | 36735 ft | 542 kts | 78° |
| 2026-05-06 07:47 | 48.72949 | -64.60369 | 36745 ft | 541 kts | 78° |
| 2026-05-06 07:47 | 48.74822 | -64.49330 | 36742 ft | 541 kts | 78° |
| 2026-05-06 07:48 | 48.75942 | -64.38158 | 36772 ft | 532 kts | 97° |
| 2026-05-06 07:48 | 48.75103 | -64.27097 | 36759 ft | 528 kts | 103° |
| 2026-05-06 07:49 | 48.74083 | -64.16149 | 36764 ft | 527 kts | 103° |
| 2026-05-06 07:49 | 48.73059 | -64.05134 | 36768 ft | 528 kts | 103° |
| 2026-05-06 07:50 | 48.72020 | -63.94124 | 36780 ft | 528 kts | 103° |
| 2026-05-06 07:50 | 48.70970 | -63.83110 | 36778 ft | 527 kts | 103° |
| 2026-05-06 07:51 | 48.69913 | -63.72128 | 36778 ft | 526 kts | 103° |
| 2026-05-06 07:51 | 48.68852 | -63.61218 | 36777 ft | 526 kts | 103° |
| 2026-05-06 07:52 | 48.67776 | -63.50265 | 36789 ft | 524 kts | 103° |
| 2026-05-06 07:52 | 48.66700 | -63.39419 | 36790 ft | 524 kts | 103° |
| 2026-05-06 07:53 | 48.65607 | -63.28513 | 36793 ft | 523 kts | 104° |
| 2026-05-06 07:53 | 48.64506 | -63.17638 | 36790 ft | 523 kts | 104° |
| 2026-05-06 07:54 | 48.63394 | -63.06748 | 36787 ft | 523 kts | 104° |
| 2026-05-06 07:54 | 48.62280 | -62.95957 | 36799 ft | 523 kts | 104° |
| 2026-05-06 07:55 | 48.61148 | -62.85091 | 36797 ft | 523 kts | 104° |
| 2026-05-06 07:55 | 48.60006 | -62.74228 | 36804 ft | 523 kts | 104° |
| 2026-05-06 07:56 | 48.58853 | -62.63363 | 36807 ft | 523 kts | 104° |
| 2026-05-06 07:56 | 48.57692 | -62.52518 | 36811 ft | 523 kts | 104° |
| 2026-05-06 07:57 | 48.56526 | -62.41739 | 36811 ft | 524 kts | 104° |
| 2026-05-06 07:57 | 48.55342 | -62.30886 | 36815 ft | 524 kts | 104° |
| 2026-05-06 07:58 | 48.54191 | -62.20429 | 36818 ft | 525 kts | 104° |
| 2026-05-06 07:58 | 48.52985 | -62.09564 | 36816 ft | 525 kts | 104° |
| 2026-05-06 07:59 | 48.51768 | -61.98700 | 36826 ft | 526 kts | 103° |
| 2026-05-06 07:59 | 48.50540 | -61.87833 | 36827 ft | 525 kts | 104° |
| 2026-05-06 08:00 | 48.49303 | -61.76984 | 36847 ft | 525 kts | 104° |
| 2026-05-06 08:00 | 48.48062 | -61.66196 | 36840 ft | 524 kts | 104° |
| 2026-05-06 08:01 | 48.46808 | -61.55385 | 36842 ft | 523 kts | 104° |
| 2026-05-06 08:01 | 48.45546 | -61.44601 | 36846 ft | 522 kts | 104° |
| 2026-05-06 08:02 | 48.44272 | -61.33806 | 36851 ft | 522 kts | 104° |
| 2026-05-06 08:02 | 48.42991 | -61.23038 | 36862 ft | 522 kts | 104° |
| 2026-05-06 08:03 | 48.41709 | -61.12353 | 36864 ft | 522 kts | 104° |
| 2026-05-06 08:03 | 48.40408 | -61.01599 | 36872 ft | 522 kts | 104° |
| 2026-05-06 08:04 | 48.39096 | -60.90840 | 36872 ft | 522 kts | 104° |
| 2026-05-06 08:04 | 48.37774 | -60.80092 | 36875 ft | 522 kts | 104° |
| 2026-05-06 08:05 | 48.36465 | -60.69529 | 36877 ft | 522 kts | 104° |
| 2026-05-06 08:05 | 48.35401 | -60.61008 | 36875 ft | 522 kts | 104° |
| 2026-05-06 08:06 | 48.34498 | -60.53814 | 36884 ft | 523 kts | 104° |
| 2026-05-06 08:06 | 48.33281 | -60.44180 | 36887 ft | 523 kts | 104° |
| 2026-05-06 08:07 | 48.31914 | -60.33441 | 36896 ft | 523 kts | 105° |
| 2026-05-06 08:07 | 48.30535 | -60.22693 | 36904 ft | 524 kts | 105° |
| 2026-05-06 08:08 | 48.29155 | -60.12014 | 36911 ft | 524 kts | 105° |
| 2026-05-06 08:08 | 48.27755 | -60.01273 | 36918 ft | 524 kts | 105° |
| 2026-05-06 08:09 | 48.26342 | -59.90509 | 36923 ft | 524 kts | 105° |
| 2026-05-06 08:09 | 48.24920 | -59.79761 | 36928 ft | 524 kts | 105° |
| 2026-05-06 08:10 | 48.23498 | -59.69094 | 36936 ft | 525 kts | 105° |
| 2026-05-06 08:10 | 48.22054 | -59.58339 | 36937 ft | 525 kts | 105° |
| 2026-05-06 08:11 | 48.20603 | -59.47615 | 36939 ft | 525 kts | 105° |
| 2026-05-06 08:11 | 48.19140 | -59.36883 | 36945 ft | 524 kts | 105° |
| 2026-05-06 08:12 | 48.17671 | -59.26187 | 36948 ft | 524 kts | 105° |
| 2026-05-06 08:12 | 48.16256 | -59.15960 | 36956 ft | 523 kts | 105° |
| 2026-05-06 08:13 | 48.14770 | -59.05289 | 36965 ft | 523 kts | 105° |
| 2026-05-06 08:13 | 48.13275 | -58.94630 | 36969 ft | 523 kts | 105° |
| 2026-05-06 08:14 | 48.11767 | -58.83961 | 36979 ft | 523 kts | 105° |
| 2026-05-06 08:14 | 48.10254 | -58.73330 | 36999 ft | 522 kts | 105° |
| 2026-05-06 08:15 | 48.08741 | -58.62776 | 37016 ft | 522 kts | 105° |
| 2026-05-06 08:15 | 48.07210 | -58.52166 | 37022 ft | 522 kts | 105° |
| 2026-05-06 08:16 | 48.05670 | -58.41564 | 37026 ft | 521 kts | 105° |
| 2026-05-06 08:16 | 48.04119 | -58.30971 | 37038 ft | 520 kts | 105° |
| 2026-05-06 08:17 | 48.02574 | -58.20483 | 37045 ft | 520 kts | 105° |
| 2026-05-06 08:17 | 48.01010 | -58.09938 | 37048 ft | 519 kts | 105° |
| 2026-05-06 08:18 | 47.99437 | -57.99409 | 37058 ft | 518 kts | 105° |
| 2026-05-06 08:18 | 47.97860 | -57.88916 | 37060 ft | 518 kts | 105° |
| 2026-05-06 08:19 | 47.96272 | -57.78428 | 37063 ft | 518 kts | 105° |
| 2026-05-06 08:19 | 47.94673 | -57.67928 | 37074 ft | 518 kts | 105° |
| 2026-05-06 08:20 | 47.93074 | -57.57506 | 37072 ft | 518 kts | 105° |
| 2026-05-06 08:20 | 47.91456 | -57.47019 | 37085 ft | 518 kts | 105° |
| 2026-05-06 08:21 | 47.89884 | -57.36537 | 37089 ft | 519 kts | 99° |
| 2026-05-06 08:21 | 47.89280 | -57.25827 | 37102 ft | 521 kts | 96° |
| 2026-05-06 08:22 | 47.88732 | -57.15058 | 37098 ft | 521 kts | 96° |
| 2026-05-06 08:22 | 47.88157 | -57.04302 | 37094 ft | 520 kts | 96° |
| 2026-05-06 08:23 | 47.87583 | -56.93548 | 37089 ft | 520 kts | 96° |
| 2026-05-06 08:23 | 47.86996 | -56.82858 | 37083 ft | 520 kts | 96° |
| 2026-05-06 08:24 | 47.86400 | -56.72130 | 37075 ft | 520 kts | 96° |
| 2026-05-06 08:24 | 47.85790 | -56.61361 | 37069 ft | 520 kts | 96° |
| 2026-05-06 08:25 | 47.85170 | -56.50605 | 37061 ft | 521 kts | 96° |
| 2026-05-06 08:25 | 47.84542 | -56.39853 | 37057 ft | 520 kts | 96° |
| 2026-05-06 08:26 | 47.83903 | -56.29111 | 37053 ft | 521 kts | 96° |
| 2026-05-06 08:26 | 47.83254 | -56.18368 | 37045 ft | 521 kts | 96° |
| 2026-05-06 08:27 | 47.82599 | -56.07686 | 37049 ft | 521 kts | 96° |
| 2026-05-06 08:27 | 47.81929 | -55.96935 | 37051 ft | 521 kts | 96° |
| 2026-05-06 08:28 | 47.81250 | -55.86200 | 37053 ft | 521 kts | 96° |
| 2026-05-06 08:28 | 47.80560 | -55.75454 | 37057 ft | 521 kts | 96° |
| 2026-05-06 08:29 | 47.79862 | -55.64734 | 37058 ft | 521 kts | 96° |
| 2026-05-06 08:29 | 47.79157 | -55.54063 | 37069 ft | 521 kts | 96° |
| 2026-05-06 08:30 | 47.78437 | -55.43331 | 37082 ft | 521 kts | 96° |
| 2026-05-06 08:30 | 47.77708 | -55.32601 | 37092 ft | 521 kts | 96° |
| 2026-05-06 08:31 | 47.76972 | -55.21921 | 37108 ft | 522 kts | 96° |
| 2026-05-06 08:31 | 47.76223 | -55.11203 | 37121 ft | 522 kts | 97° |
| 2026-05-06 08:32 | 47.75462 | -55.00466 | 37136 ft | 522 kts | 97° |
| 2026-05-06 08:32 | 47.74692 | -54.89745 | 37149 ft | 522 kts | 97° |
| 2026-05-06 08:33 | 47.74045 | -54.80831 | 37151 ft | 522 kts | 97° |
| 2026-05-06 08:33 | 47.73125 | -54.68342 | 37160 ft | 522 kts | 97° |
| 2026-05-06 08:34 | 47.71921 | -54.52254 | 37174 ft | 522 kts | 97° |
| 2026-05-06 08:35 | 47.71242 | -54.43326 | 37171 ft | 522 kts | 97° |
| 2026-05-06 08:35 | 47.70416 | -54.32581 | 37179 ft | 522 kts | 97° |
| 2026-05-06 08:36 | 47.69582 | -54.21868 | 37175 ft | 522 kts | 97° |
| 2026-05-06 08:36 | 47.68862 | -54.12721 | 37176 ft | 523 kts | 97° |
| 2026-05-06 08:37 | 47.68010 | -54.02017 | 37176 ft | 522 kts | 97° |
| 2026-05-06 08:37 | 47.67148 | -53.91315 | 37176 ft | 522 kts | 97° |
| 2026-05-06 08:38 | 47.66281 | -53.80678 | 37176 ft | 522 kts | 97° |
| 2026-05-06 08:38 | 47.65396 | -53.69952 | 37188 ft | 523 kts | 97° |
| 2026-05-06 08:39 | 47.64504 | -53.59253 | 37187 ft | 523 kts | 97° |
| 2026-05-06 08:39 | 47.63601 | -53.48562 | 37192 ft | 523 kts | 97° |
| 2026-05-06 08:40 | 47.62687 | -53.37851 | 37183 ft | 523 kts | 97° |
| 2026-05-06 08:40 | 47.61769 | -53.27210 | 37190 ft | 523 kts | 97° |
| 2026-05-06 08:41 | 47.60836 | -53.16515 | 37187 ft | 523 kts | 97° |
| 2026-05-06 08:41 | 47.59890 | -53.05792 | 37172 ft | 523 kts | 97° |
| 2026-05-06 08:42 | 47.58935 | -52.95085 | 37172 ft | 524 kts | 97° |
| 2026-05-06 08:42 | 47.57974 | -52.84425 | 37169 ft | 524 kts | 97° |
| 2026-05-06 08:43 | 47.56999 | -52.73722 | 37161 ft | 524 kts | 97° |
| 2026-05-06 08:43 | 47.56013 | -52.63022 | 37174 ft | 524 kts | 97° |
| 2026-05-06 08:44 | 47.55023 | -52.52378 | 37166 ft | 524 kts | 97° |
| 2026-05-06 08:44 | 47.54019 | -52.41693 | 37175 ft | 523 kts | 97° |
| 2026-05-06 08:45 | 47.53006 | -52.31030 | 37189 ft | 523 kts | 97° |
| 2026-05-06 08:45 | 47.51985 | -52.20390 | 37199 ft | 522 kts | 97° |
| 2026-05-06 08:46 | 47.50962 | -52.09828 | 37209 ft | 521 kts | 98° |
| 2026-05-06 08:46 | 47.50737 | -51.99182 | 37245 ft | 518 kts | 78° |
| 2026-05-06 08:46 | 47.51592 | -51.94024 | 37248 ft | 515 kts | 67° |
| 2026-05-06 08:47 | 47.52838 | -51.89064 | 37229 ft | 515 kts | 66° |
| 2026-05-06 08:47 | 47.55415 | -51.79197 | 37228 ft | 513 kts | 66° |
| 2026-05-06 08:48 | 47.57963 | -51.69306 | 37222 ft | 513 kts | 66° |
| 2026-05-06 08:48 | 47.60494 | -51.59467 | 37224 ft | 513 kts | 66° |
| 2026-05-06 08:49 | 47.63026 | -51.49583 | 37225 ft | 513 kts | 66° |
| 2026-05-06 08:49 | 47.65548 | -51.39684 | 37231 ft | 512 kts | 66° |
| 2026-05-06 08:50 | 47.68064 | -51.29780 | 37230 ft | 512 kts | 66° |
| 2026-05-06 08:50 | 47.70562 | -51.19891 | 37223 ft | 511 kts | 66° |
| 2026-05-06 08:51 | 47.73038 | -51.10053 | 37229 ft | 511 kts | 66° |
| 2026-05-06 08:51 | 47.75262 | -51.01174 | 37219 ft | 511 kts | 66° |
| 2026-05-06 08:52 | 47.77735 | -50.91267 | 37223 ft | 511 kts | 66° |
| 2026-05-06 08:52 | 47.80198 | -50.81352 | 37227 ft | 511 kts | 66° |
| 2026-05-06 08:53 | 47.82640 | -50.71480 | 37229 ft | 511 kts | 66° |
| 2026-05-06 08:53 | 47.85086 | -50.61548 | 37222 ft | 511 kts | 66° |
| 2026-05-06 08:54 | 47.87523 | -50.51607 | 37229 ft | 511 kts | 66° |
| 2026-05-06 08:54 | 47.89952 | -50.41658 | 37231 ft | 511 kts | 66° |
| 2026-05-06 08:55 | 47.92371 | -50.31699 | 37230 ft | 511 kts | 66° |
| 2026-05-06 08:55 | 47.94768 | -50.21793 | 37227 ft | 511 kts | 66° |
| 2026-05-06 08:56 | 47.97171 | -50.11813 | 37232 ft | 511 kts | 66° |
| 2026-05-06 08:56 | 47.99563 | -50.01829 | 37230 ft | 511 kts | 67° |
| 2026-05-06 08:57 | 48.01249 | -49.91423 | 37230 ft | 516 kts | 74° |
| 2026-05-06 08:57 | 48.02758 | -49.81014 | 37227 ft | 516 kts | 74° |
| 2026-05-06 08:58 | 48.04264 | -49.70518 | 37232 ft | 516 kts | 74° |
| 2026-05-06 08:58 | 48.05711 | -49.60393 | 37228 ft | 516 kts | 74° |
| 2026-05-06 08:59 | 48.07198 | -49.49895 | 37229 ft | 516 kts | 74° |
| 2026-05-06 08:59 | 48.08677 | -49.39388 | 37228 ft | 516 kts | 74° |
| 2026-05-06 09:00 | 48.10139 | -49.28927 | 37227 ft | 517 kts | 74° |
| 2026-05-06 09:00 | 48.11602 | -49.18391 | 37232 ft | 517 kts | 74° |
| 2026-05-06 09:01 | 48.13053 | -49.07863 | 37234 ft | 516 kts | 74° |
| 2026-05-06 09:01 | 48.14494 | -48.97326 | 37233 ft | 517 kts | 74° |
| 2026-05-06 09:02 | 48.15926 | -48.86786 | 37238 ft | 517 kts | 75° |
| 2026-05-06 09:02 | 48.17350 | -48.76221 | 37229 ft | 517 kts | 75° |
| 2026-05-06 09:03 | 48.18754 | -48.65728 | 37235 ft | 517 kts | 75° |
| 2026-05-06 09:03 | 48.20161 | -48.55136 | 37243 ft | 517 kts | 75° |
| 2026-05-06 09:04 | 48.21556 | -48.44559 | 37234 ft | 517 kts | 75° |
| 2026-05-06 09:04 | 48.22941 | -48.33980 | 37242 ft | 516 kts | 75° |
| 2026-05-06 09:05 | 48.24111 | -48.24971 | 37239 ft | 516 kts | 75° |
| 2026-05-06 09:05 | 48.25323 | -48.15580 | 37243 ft | 515 kts | 75° |
| 2026-05-06 09:06 | 48.26678 | -48.05014 | 37243 ft | 515 kts | 75° |
| 2026-05-06 09:06 | 48.28023 | -47.94431 | 37244 ft | 515 kts | 75° |
| 2026-05-06 09:07 | 48.29356 | -47.83873 | 37244 ft | 515 kts | 75° |
| 2026-05-06 09:07 | 48.30671 | -47.73366 | 37235 ft | 514 kts | 75° |
| 2026-05-06 09:08 | 48.31983 | -47.62806 | 37244 ft | 514 kts | 75° |
| 2026-05-06 09:08 | 48.33286 | -47.52245 | 37241 ft | 514 kts | 75° |
| 2026-05-06 09:09 | 48.34577 | -47.41680 | 37245 ft | 514 kts | 75° |
| 2026-05-06 09:09 | 48.35861 | -47.31095 | 37245 ft | 513 kts | 76° |
| 2026-05-06 09:10 | 48.37132 | -47.20535 | 37245 ft | 513 kts | 76° |
| 2026-05-06 09:10 | 48.38393 | -47.09971 | 37247 ft | 513 kts | 76° |
| 2026-05-06 09:11 | 48.39635 | -46.99477 | 37252 ft | 512 kts | 76° |
| 2026-05-06 09:11 | 48.40875 | -46.88921 | 37242 ft | 512 kts | 76° |
| 2026-05-06 09:12 | 48.42106 | -46.78347 | 37247 ft | 513 kts | 76° |
| 2026-05-06 09:12 | 48.43284 | -46.68149 | 37247 ft | 512 kts | 76° |
| 2026-05-06 09:13 | 48.44498 | -46.57543 | 37248 ft | 513 kts | 76° |
| 2026-05-06 09:13 | 48.45693 | -46.47019 | 37248 ft | 513 kts | 76° |
| 2026-05-06 09:14 | 48.46888 | -46.36413 | 37250 ft | 512 kts | 76° |
| 2026-05-06 09:14 | 48.48071 | -46.25812 | 37245 ft | 512 kts | 76° |
| 2026-05-06 09:15 | 48.49244 | -46.15208 | 37244 ft | 512 kts | 76° |
| 2026-05-06 09:15 | 48.50401 | -46.04664 | 37246 ft | 512 kts | 76° |
| 2026-05-06 09:16 | 48.51556 | -45.94041 | 37252 ft | 512 kts | 77° |
| 2026-05-06 09:16 | 48.52701 | -45.83411 | 37241 ft | 513 kts | 77° |
| 2026-05-06 09:17 | 48.53829 | -45.72848 | 37249 ft | 513 kts | 77° |
| 2026-05-06 09:17 | 48.54957 | -45.62194 | 37244 ft | 514 kts | 77° |
| 2026-05-06 09:18 | 48.56074 | -45.51535 | 37248 ft | 514 kts | 77° |
| 2026-05-06 09:18 | 48.57183 | -45.40860 | 37247 ft | 514 kts | 77° |
| 2026-05-06 09:19 | 48.58282 | -45.30184 | 37249 ft | 515 kts | 77° |
| 2026-05-06 09:19 | 48.59367 | -45.19542 | 37249 ft | 515 kts | 77° |
| 2026-05-06 09:20 | 48.60445 | -45.08865 | 37251 ft | 516 kts | 77° |
| 2026-05-06 09:20 | 48.61519 | -44.98122 | 37247 ft | 516 kts | 77° |
| 2026-05-06 09:21 | 48.62583 | -44.87377 | 37242 ft | 517 kts | 77° |
| 2026-05-06 09:21 | 48.63636 | -44.76641 | 37248 ft | 517 kts | 77° |
| 2026-05-06 09:22 | 48.64682 | -44.65874 | 37250 ft | 517 kts | 77° |
| 2026-05-06 09:22 | 48.65711 | -44.55168 | 37245 ft | 518 kts | 77° |
| 2026-05-06 09:23 | 48.66737 | -44.44383 | 37244 ft | 518 kts | 77° |
| 2026-05-06 09:23 | 48.67755 | -44.33575 | 37245 ft | 518 kts | 77° |
| 2026-05-06 09:24 | 48.68596 | -44.24562 | 37242 ft | 519 kts | 77° |
| 2026-05-06 09:24 | 48.69598 | -44.13712 | 37240 ft | 519 kts | 77° |
| 2026-05-06 09:25 | 48.70584 | -44.02936 | 37243 ft | 520 kts | 78° |
| 2026-05-06 09:25 | 48.71565 | -43.92087 | 37246 ft | 520 kts | 78° |
| 2026-05-06 09:26 | 48.72537 | -43.81220 | 37251 ft | 521 kts | 78° |
| 2026-05-06 09:26 | 48.73500 | -43.70337 | 37247 ft | 521 kts | 78° |
| 2026-05-06 09:27 | 48.74237 | -43.61934 | 37247 ft | 521 kts | 78° |
| 2026-05-06 09:27 | 48.75194 | -43.50907 | 37240 ft | 522 kts | 78° |
| 2026-05-06 09:28 | 48.76089 | -43.40471 | 37247 ft | 522 kts | 78° |
| 2026-05-06 09:28 | 48.77016 | -43.29554 | 37245 ft | 522 kts | 78° |
| 2026-05-06 09:29 | 48.77932 | -43.18623 | 37245 ft | 522 kts | 78° |
| 2026-05-06 09:29 | 48.78839 | -43.07682 | 37247 ft | 522 kts | 78° |
| 2026-05-06 09:30 | 48.79735 | -42.96747 | 37246 ft | 522 kts | 78° |
| 2026-05-06 09:30 | 48.80620 | -42.85814 | 37247 ft | 522 kts | 78° |
| 2026-05-06 09:31 | 48.81489 | -42.74955 | 37250 ft | 521 kts | 78° |
| 2026-05-06 09:31 | 48.82352 | -42.64031 | 37249 ft | 521 kts | 78° |
| 2026-05-06 09:32 | 48.83204 | -42.53106 | 37245 ft | 520 kts | 78° |
| 2026-05-06 09:32 | 48.84045 | -42.42198 | 37246 ft | 520 kts | 79° |
| 2026-05-06 09:33 | 48.84874 | -42.31301 | 37248 ft | 519 kts | 79° |
| 2026-05-06 09:33 | 48.85686 | -42.20491 | 37246 ft | 519 kts | 79° |
| 2026-05-06 09:34 | 48.86494 | -42.09602 | 37239 ft | 518 kts | 79° |
| 2026-05-06 09:34 | 48.87291 | -41.98721 | 37242 ft | 518 kts | 79° |
| 2026-05-06 09:35 | 48.88077 | -41.87832 | 37241 ft | 518 kts | 79° |
| 2026-05-06 09:35 | 48.88854 | -41.76932 | 37242 ft | 518 kts | 79° |
| 2026-05-06 09:36 | 48.89616 | -41.66090 | 37240 ft | 519 kts | 80° |
| 2026-05-06 09:36 | 48.90374 | -41.55171 | 37245 ft | 519 kts | 80° |
| 2026-05-06 09:37 | 48.91122 | -41.44239 | 37242 ft | 519 kts | 80° |
| 2026-05-06 09:37 | 48.91855 | -41.33366 | 37238 ft | 520 kts | 80° |
| 2026-05-06 09:38 | 48.92583 | -41.22422 | 37240 ft | 521 kts | 81° |
| 2026-05-06 09:38 | 48.93301 | -41.11460 | 37237 ft | 521 kts | 81° |
| 2026-05-06 09:39 | 48.94009 | -41.00481 | 37238 ft | 522 kts | 81° |
| 2026-05-06 09:39 | 48.94708 | -40.89487 | 37234 ft | 523 kts | 81° |
| 2026-05-06 09:40 | 48.95399 | -40.78452 | 37236 ft | 523 kts | 81° |
| 2026-05-06 09:40 | 48.96415 | -40.61895 | 37235 ft | 524 kts | 81° |
| 2026-05-06 09:41 | 48.97076 | -40.50917 | 37237 ft | 525 kts | 81° |
| 2026-05-06 09:41 | 48.97706 | -40.40262 | 37234 ft | 525 kts | 82° |
| 2026-05-06 09:42 | 48.98352 | -40.29181 | 37236 ft | 526 kts | 82° |
| 2026-05-06 09:42 | 48.98987 | -40.18090 | 37235 ft | 525 kts | 82° |
| 2026-05-06 09:43 | 48.99613 | -40.06995 | 37237 ft | 525 kts | 82° |
| 2026-05-06 09:43 | 49.00584 | -39.96020 | 37241 ft | 521 kts | 74° |
| 2026-05-06 09:44 | 49.02140 | -39.85255 | 37232 ft | 522 kts | 74° |
| 2026-05-06 09:44 | 49.03700 | -39.74451 | 37229 ft | 522 kts | 74° |
| 2026-05-06 09:45 | 49.05244 | -39.63632 | 37229 ft | 522 kts | 74° |
| 2026-05-06 09:45 | 49.06772 | -39.52879 | 37227 ft | 522 kts | 74° |
| 2026-05-06 09:46 | 49.08296 | -39.42057 | 37228 ft | 521 kts | 74° |
| 2026-05-06 09:46 | 49.09810 | -39.31236 | 37216 ft | 521 kts | 75° |
| 2026-05-06 09:47 | 49.11313 | -39.20413 | 37220 ft | 520 kts | 75° |
| 2026-05-06 09:47 | 49.12803 | -39.09604 | 37219 ft | 520 kts | 75° |
| 2026-05-06 09:48 | 49.14288 | -38.98759 | 37215 ft | 520 kts | 75° |
| 2026-05-06 09:48 | 49.15748 | -38.88011 | 37216 ft | 520 kts | 75° |
| 2026-05-06 09:49 | 49.17208 | -38.77183 | 37213 ft | 520 kts | 75° |
| 2026-05-06 09:49 | 49.18655 | -38.66369 | 37217 ft | 520 kts | 75° |
| 2026-05-06 09:50 | 49.20093 | -38.55538 | 37214 ft | 519 kts | 76° |
| 2026-05-06 09:50 | 49.21514 | -38.44754 | 37212 ft | 519 kts | 76° |
| 2026-05-06 09:51 | 49.22934 | -38.33902 | 37208 ft | 519 kts | 76° |
| 2026-05-06 09:51 | 49.24336 | -38.23091 | 37205 ft | 519 kts | 76° |
| 2026-05-06 09:52 | 49.25734 | -38.12236 | 37206 ft | 520 kts | 76° |
| 2026-05-06 09:52 | 49.27123 | -38.01366 | 37207 ft | 520 kts | 76° |
| 2026-05-06 09:53 | 49.28500 | -37.90502 | 37198 ft | 520 kts | 76° |
| 2026-05-06 09:53 | 49.29866 | -37.79633 | 37203 ft | 519 kts | 77° |
| 2026-05-06 09:54 | 49.31220 | -37.68779 | 37186 ft | 519 kts | 77° |
| 2026-05-06 09:54 | 49.32567 | -37.57895 | 37189 ft | 519 kts | 77° |
| 2026-05-06 09:55 | 49.33894 | -37.47076 | 37185 ft | 520 kts | 77° |
| 2026-05-06 09:55 | 49.35224 | -37.36158 | 37192 ft | 520 kts | 77° |
| 2026-05-06 09:56 | 49.36540 | -37.25248 | 37198 ft | 520 kts | 77° |
| 2026-05-06 09:56 | 49.37803 | -37.14703 | 37198 ft | 521 kts | 77° |
| 2026-05-06 09:57 | 49.39110 | -37.03690 | 37184 ft | 521 kts | 78° |
| 2026-05-06 09:57 | 49.40391 | -36.92816 | 37187 ft | 521 kts | 78° |
| 2026-05-06 09:58 | 49.41670 | -36.81856 | 37183 ft | 521 kts | 78° |
| 2026-05-06 09:58 | 49.42938 | -36.70899 | 37186 ft | 521 kts | 78° |
| 2026-05-06 09:59 | 49.44198 | -36.59917 | 37185 ft | 521 kts | 78° |
| 2026-05-06 09:59 | 49.45445 | -36.48947 | 37178 ft | 521 kts | 78° |
| 2026-05-06 10:00 | 49.46682 | -36.37970 | 37185 ft | 521 kts | 78° |
| 2026-05-06 10:00 | 49.47902 | -36.27046 | 37182 ft | 521 kts | 78° |
| 2026-05-06 10:01 | 49.49118 | -36.16066 | 37183 ft | 521 kts | 78° |
| 2026-05-06 10:01 | 49.50324 | -36.05073 | 37178 ft | 521 kts | 79° |
| 2026-05-06 10:02 | 49.51518 | -35.94086 | 37180 ft | 521 kts | 79° |
| 2026-05-06 10:02 | 49.52705 | -35.83074 | 37178 ft | 520 kts | 79° |
| 2026-05-06 10:03 | 49.53874 | -35.72100 | 37178 ft | 519 kts | 79° |
| 2026-05-06 10:03 | 49.54949 | -35.61944 | 37175 ft | 519 kts | 79° |
| 2026-05-06 10:04 | 49.56066 | -35.51280 | 37174 ft | 518 kts | 79° |
| 2026-05-06 10:04 | 49.57171 | -35.40644 | 37161 ft | 518 kts | 79° |
| 2026-05-06 10:05 | 49.58208 | -35.30561 | 37169 ft | 518 kts | 79° |
| 2026-05-06 10:05 | 49.59329 | -35.19573 | 37165 ft | 518 kts | 80° |
| 2026-05-06 10:06 | 49.60429 | -35.08672 | 37164 ft | 518 kts | 80° |
| 2026-05-06 10:06 | 49.61528 | -34.97680 | 37169 ft | 518 kts | 80° |
| 2026-05-06 10:07 | 49.62614 | -34.86702 | 37169 ft | 518 kts | 80° |
| 2026-05-06 10:07 | 49.63691 | -34.75717 | 37173 ft | 517 kts | 80° |
| 2026-05-06 10:08 | 49.64757 | -34.64728 | 37177 ft | 517 kts | 80° |
| 2026-05-06 10:08 | 49.65804 | -34.53820 | 37163 ft | 517 kts | 81° |
| 2026-05-06 10:09 | 49.66849 | -34.42822 | 37164 ft | 516 kts | 81° |
| 2026-05-06 10:09 | 49.67875 | -34.31913 | 37162 ft | 516 kts | 81° |
| 2026-05-06 10:10 | 49.68896 | -34.20936 | 37164 ft | 516 kts | 81° |
| 2026-05-06 10:10 | 49.69908 | -34.09953 | 37158 ft | 516 kts | 81° |
| 2026-05-06 10:11 | 49.70842 | -33.99698 | 37161 ft | 516 kts | 81° |
| 2026-05-06 10:11 | 49.71788 | -33.89211 | 37160 ft | 515 kts | 81° |
| 2026-05-06 10:12 | 49.72763 | -33.78287 | 37157 ft | 515 kts | 81° |
| 2026-05-06 10:12 | 49.73730 | -33.67332 | 37156 ft | 514 kts | 82° |
| 2026-05-06 10:13 | 49.74686 | -33.56373 | 37155 ft | 514 kts | 82° |
| 2026-05-06 10:13 | 49.75472 | -33.47284 | 37151 ft | 513 kts | 82° |
| 2026-05-06 10:14 | 49.76409 | -33.36324 | 37149 ft | 513 kts | 82° |
| 2026-05-06 10:14 | 49.77335 | -33.25369 | 37150 ft | 513 kts | 82° |
| 2026-05-06 10:15 | 49.78251 | -33.14398 | 37147 ft | 514 kts | 82° |
| 2026-05-06 10:15 | 49.79151 | -33.03498 | 37139 ft | 513 kts | 82° |
| 2026-05-06 10:16 | 49.80046 | -32.92535 | 37140 ft | 513 kts | 83° |
| 2026-05-06 10:16 | 49.80930 | -32.81565 | 37136 ft | 513 kts | 83° |
| 2026-05-06 10:17 | 49.81805 | -32.70581 | 37138 ft | 514 kts | 83° |
| 2026-05-06 10:17 | 49.82669 | -32.59598 | 37135 ft | 514 kts | 83° |
| 2026-05-06 10:18 | 49.83519 | -32.48663 | 37134 ft | 514 kts | 83° |
| 2026-05-06 10:18 | 49.84340 | -32.37975 | 37129 ft | 514 kts | 83° |
| 2026-05-06 10:19 | 49.85174 | -32.26969 | 37128 ft | 514 kts | 83° |
| 2026-05-06 10:19 | 49.85968 | -32.16353 | 37127 ft | 514 kts | 83° |
| 2026-05-06 10:20 | 49.86780 | -32.05373 | 37121 ft | 515 kts | 83° |
| 2026-05-06 10:20 | 49.87584 | -31.94344 | 37119 ft | 515 kts | 83° |
| 2026-05-06 10:21 | 49.88378 | -31.83306 | 37117 ft | 515 kts | 83° |
| 2026-05-06 10:21 | 49.89162 | -31.72254 | 37113 ft | 515 kts | 83° |
| 2026-05-06 10:22 | 49.89936 | -31.61202 | 37112 ft | 515 kts | 83° |
| 2026-05-06 10:22 | 49.90695 | -31.50209 | 37115 ft | 515 kts | 84° |
| 2026-05-06 10:23 | 49.91447 | -31.39160 | 37096 ft | 515 kts | 84° |
| 2026-05-06 10:23 | 49.92189 | -31.28102 | 37104 ft | 516 kts | 84° |
| 2026-05-06 10:24 | 49.92922 | -31.17013 | 37100 ft | 516 kts | 84° |
| 2026-05-06 10:24 | 49.93641 | -31.05971 | 37091 ft | 516 kts | 84° |
| 2026-05-06 10:25 | 49.94352 | -30.94888 | 37093 ft | 516 kts | 84° |
| 2026-05-06 10:25 | 49.95053 | -30.83795 | 37088 ft | 516 kts | 84° |
| 2026-05-06 10:26 | 49.95745 | -30.72690 | 37083 ft | 517 kts | 84° |
| 2026-05-06 10:26 | 49.96425 | -30.61580 | 37075 ft | 517 kts | 84° |
| 2026-05-06 10:27 | 49.97020 | -30.51718 | 37074 ft | 517 kts | 84° |
| 2026-05-06 10:27 | 49.97681 | -30.40593 | 37066 ft | 517 kts | 84° |
| 2026-05-06 10:28 | 49.98332 | -30.29465 | 37064 ft | 517 kts | 84° |
| 2026-05-06 10:28 | 49.98972 | -30.18324 | 37061 ft | 518 kts | 84° |
| 2026-05-06 10:29 | 49.99602 | -30.07169 | 37059 ft | 518 kts | 84° |
| 2026-05-06 10:29 | 50.00560 | -29.96172 | 37065 ft | 517 kts | 76° |
| 2026-05-06 10:30 | 50.02140 | -29.85247 | 37057 ft | 517 kts | 76° |
| 2026-05-06 10:30 | 50.03713 | -29.74326 | 37046 ft | 517 kts | 76° |
| 2026-05-06 10:31 | 50.05272 | -29.63396 | 37047 ft | 517 kts | 76° |
| 2026-05-06 10:31 | 50.06826 | -29.52446 | 37044 ft | 517 kts | 76° |
| 2026-05-06 10:32 | 50.08356 | -29.41565 | 37035 ft | 517 kts | 76° |
| 2026-05-06 10:32 | 50.09887 | -29.30605 | 37026 ft | 517 kts | 76° |
| 2026-05-06 10:33 | 50.11408 | -29.19642 | 37030 ft | 518 kts | 76° |
| 2026-05-06 10:33 | 50.12863 | -29.09071 | 37018 ft | 518 kts | 76° |
| 2026-05-06 10:34 | 50.14365 | -28.98078 | 37021 ft | 518 kts | 76° |
| 2026-05-06 10:34 | 50.15846 | -28.87156 | 37011 ft | 518 kts | 76° |
| 2026-05-06 10:35 | 50.17329 | -28.76141 | 37017 ft | 518 kts | 76° |
| 2026-05-06 10:35 | 50.18806 | -28.65123 | 37299 ft | 520 kts | 78° |
| 2026-05-06 10:36 | 50.19538 | -28.59602 | 37168 ft | 518 kts | 79° |
| 2026-05-06 10:36 | 50.20260 | -28.54100 | 37038 ft | 515 kts | 79° |
| 2026-05-06 10:36 | 50.21707 | -28.43116 | 37033 ft | 518 kts | 79° |
| 2026-05-06 10:37 | 50.23145 | -28.32094 | 37032 ft | 518 kts | 79° |
| 2026-05-06 10:37 | 50.24573 | -28.21066 | 37036 ft | 517 kts | 79° |
| 2026-05-06 10:38 | 50.25980 | -28.10113 | 37040 ft | 517 kts | 79° |
| 2026-05-06 10:38 | 50.27386 | -27.99074 | 37034 ft | 517 kts | 79° |
| 2026-05-06 10:39 | 50.28780 | -27.88046 | 37033 ft | 516 kts | 79° |
| 2026-05-06 10:39 | 50.30162 | -27.77022 | 37034 ft | 516 kts | 79° |
| 2026-05-06 10:40 | 50.31535 | -27.65986 | 37038 ft | 516 kts | 79° |
| 2026-05-06 10:40 | 50.32888 | -27.55018 | 37040 ft | 516 kts | 79° |
| 2026-05-06 10:41 | 50.34241 | -27.43961 | 37037 ft | 515 kts | 79° |
| 2026-05-06 10:41 | 50.35564 | -27.33054 | 37041 ft | 515 kts | 80° |
| 2026-05-06 10:42 | 50.36716 | -27.23485 | 37042 ft | 515 kts | 80° |
| 2026-05-06 10:42 | 50.38034 | -27.12454 | 37044 ft | 515 kts | 80° |
| 2026-05-06 10:43 | 50.39332 | -27.01495 | 37048 ft | 514 kts | 80° |
| 2026-05-06 10:44 | 50.41269 | -26.84965 | 37052 ft | 513 kts | 80° |
| 2026-05-06 10:44 | 50.42544 | -26.73961 | 37052 ft | 512 kts | 80° |
| 2026-05-06 10:45 | 50.43800 | -26.63033 | 37062 ft | 512 kts | 80° |
| 2026-05-06 10:45 | 50.45054 | -26.52029 | 37062 ft | 511 kts | 80° |
| 2026-05-06 10:46 | 50.46292 | -26.41059 | 37063 ft | 510 kts | 80° |
| 2026-05-06 10:46 | 50.47519 | -26.30098 | 37062 ft | 509 kts | 81° |
| 2026-05-06 10:47 | 50.48733 | -26.19153 | 37073 ft | 508 kts | 81° |
| 2026-05-06 10:47 | 50.49935 | -26.08223 | 37068 ft | 508 kts | 81° |
| 2026-05-06 10:48 | 50.51128 | -25.97268 | 37072 ft | 508 kts | 81° |
| 2026-05-06 10:48 | 50.52310 | -25.86313 | 37081 ft | 507 kts | 81° |
| 2026-05-06 10:49 | 50.53333 | -25.76762 | 37083 ft | 506 kts | 81° |
| 2026-05-06 10:49 | 50.54486 | -25.65894 | 37084 ft | 506 kts | 81° |
| 2026-05-06 10:50 | 50.55634 | -25.54967 | 37087 ft | 506 kts | 81° |
| 2026-05-06 10:50 | 50.56771 | -25.44053 | 37089 ft | 505 kts | 81° |
| 2026-05-06 10:51 | 50.57896 | -25.33140 | 37098 ft | 505 kts | 81° |
| 2026-05-06 10:51 | 50.59004 | -25.22293 | 37094 ft | 505 kts | 82° |
| 2026-05-06 10:52 | 50.60110 | -25.11363 | 37100 ft | 505 kts | 82° |
| 2026-05-06 10:52 | 50.61205 | -25.00431 | 37100 ft | 504 kts | 82° |
| 2026-05-06 10:53 | 50.62289 | -24.89511 | 37102 ft | 504 kts | 82° |
| 2026-05-06 10:53 | 50.63353 | -24.78674 | 37102 ft | 504 kts | 82° |
| 2026-05-06 10:54 | 50.64415 | -24.67758 | 37100 ft | 503 kts | 82° |
| 2026-05-06 10:54 | 50.65464 | -24.56858 | 37111 ft | 503 kts | 82° |
| 2026-05-06 10:55 | 50.66504 | -24.45953 | 37105 ft | 502 kts | 82° |
| 2026-05-06 10:55 | 50.67506 | -24.35328 | 37116 ft | 502 kts | 82° |
| 2026-05-06 10:56 | 50.68439 | -24.25346 | 37117 ft | 502 kts | 82° |
| 2026-05-06 10:56 | 50.69446 | -24.14462 | 37120 ft | 502 kts | 82° |
| 2026-05-06 10:57 | 50.70436 | -24.03639 | 37115 ft | 501 kts | 83° |
| 2026-05-06 10:57 | 50.71421 | -23.92767 | 37118 ft | 500 kts | 83° |
| 2026-05-06 10:58 | 50.72395 | -23.81892 | 37116 ft | 499 kts | 83° |
| 2026-05-06 10:58 | 50.73357 | -23.71039 | 37115 ft | 499 kts | 83° |
| 2026-05-06 10:59 | 50.74308 | -23.60191 | 37112 ft | 499 kts | 83° |
| 2026-05-06 10:59 | 50.75244 | -23.49392 | 37116 ft | 498 kts | 83° |
| 2026-05-06 11:00 | 50.76178 | -23.38503 | 37112 ft | 498 kts | 83° |
| 2026-05-06 11:00 | 50.77092 | -23.27714 | 37110 ft | 499 kts | 83° |
| 2026-05-06 11:01 | 50.78005 | -23.16831 | 37114 ft | 498 kts | 83° |
| 2026-05-06 11:01 | 50.78905 | -23.05968 | 37113 ft | 498 kts | 83° |
| 2026-05-06 11:02 | 50.79793 | -22.95116 | 37115 ft | 497 kts | 83° |
| 2026-05-06 11:02 | 50.80523 | -22.86109 | 37112 ft | 497 kts | 83° |
| 2026-05-06 11:03 | 50.81393 | -22.75260 | 37116 ft | 497 kts | 83° |
| 2026-05-06 11:03 | 50.82252 | -22.64410 | 37115 ft | 497 kts | 83° |
| 2026-05-06 11:04 | 50.83103 | -22.53532 | 37125 ft | 497 kts | 83° |
| 2026-05-06 11:04 | 50.83943 | -22.42664 | 37124 ft | 497 kts | 83° |
| 2026-05-06 11:05 | 50.84766 | -22.31873 | 37119 ft | 497 kts | 83° |
| 2026-05-06 11:05 | 50.85587 | -22.20986 | 37122 ft | 497 kts | 83° |
| 2026-05-06 11:06 | 50.86394 | -22.10133 | 37123 ft | 497 kts | 83° |
| 2026-05-06 11:06 | 50.87193 | -21.99260 | 37122 ft | 497 kts | 83° |
| 2026-05-06 11:07 | 50.87977 | -21.88447 | 37121 ft | 497 kts | 83° |
| 2026-05-06 11:07 | 50.88754 | -21.77593 | 37120 ft | 496 kts | 83° |
| 2026-05-06 11:08 | 50.89522 | -21.66713 | 37121 ft | 496 kts | 83° |
| 2026-05-06 11:08 | 50.90279 | -21.55851 | 37122 ft | 496 kts | 83° |
| 2026-05-06 11:09 | 50.91025 | -21.44990 | 37120 ft | 496 kts | 84° |
| 2026-05-06 11:09 | 50.91762 | -21.34113 | 37121 ft | 496 kts | 84° |
| 2026-05-06 11:10 | 50.92483 | -21.23314 | 37123 ft | 496 kts | 84° |
| 2026-05-06 11:10 | 50.93198 | -21.12466 | 37123 ft | 494 kts | 84° |
| 2026-05-06 11:11 | 50.93902 | -21.01622 | 37118 ft | 495 kts | 84° |
| 2026-05-06 11:11 | 50.94572 | -20.91151 | 37124 ft | 495 kts | 84° |
| 2026-05-06 11:12 | 50.95206 | -20.81092 | 37122 ft | 495 kts | 84° |
| 2026-05-06 11:12 | 50.95877 | -20.70299 | 37120 ft | 494 kts | 84° |
| 2026-05-06 11:13 | 50.96542 | -20.59443 | 37121 ft | 494 kts | 84° |
| 2026-05-06 11:13 | 50.97198 | -20.48579 | 37120 ft | 494 kts | 84° |
| 2026-05-06 11:14 | 50.97842 | -20.37720 | 37119 ft | 494 kts | 84° |
| 2026-05-06 11:14 | 50.98477 | -20.26850 | 37116 ft | 494 kts | 84° |
| 2026-05-06 11:15 | 50.99101 | -20.15988 | 37114 ft | 493 kts | 84° |
| 2026-05-06 11:15 | 50.99711 | -20.05194 | 37119 ft | 493 kts | 84° |
| 2026-05-06 11:16 | 51.00098 | -19.94319 | 37108 ft | 493 kts | 87° |
| 2026-05-06 11:16 | 51.00355 | -19.83442 | 37116 ft | 493 kts | 87° |
| 2026-05-06 11:17 | 51.00549 | -19.72550 | 37114 ft | 493 kts | 87° |
| 2026-05-06 11:17 | 51.00759 | -19.61675 | 37100 ft | 493 kts | 87° |
| 2026-05-06 11:18 | 51.00927 | -19.52018 | 37114 ft | 492 kts | 87° |
| 2026-05-06 11:18 | 51.01109 | -19.41214 | 37114 ft | 492 kts | 87° |
| 2026-05-06 11:19 | 51.01275 | -19.30742 | 37111 ft | 492 kts | 87° |
| 2026-05-06 11:19 | 51.01437 | -19.19864 | 37105 ft | 493 kts | 87° |
| 2026-05-06 11:20 | 51.01590 | -19.08994 | 37106 ft | 492 kts | 87° |
| 2026-05-06 11:20 | 51.01733 | -18.98101 | 37112 ft | 492 kts | 87° |
| 2026-05-06 11:21 | 51.01865 | -18.87296 | 37101 ft | 492 kts | 87° |
| 2026-05-06 11:21 | 51.01987 | -18.76421 | 37099 ft | 492 kts | 87° |
| 2026-05-06 11:22 | 51.02100 | -18.65539 | 37101 ft | 492 kts | 87° |
| 2026-05-06 11:22 | 51.02201 | -18.54736 | 37097 ft | 492 kts | 87° |
| 2026-05-06 11:23 | 51.02293 | -18.43880 | 37109 ft | 491 kts | 87° |
| 2026-05-06 11:23 | 51.02375 | -18.33030 | 37101 ft | 491 kts | 87° |
| 2026-05-06 11:24 | 51.02447 | -18.22184 | 37102 ft | 491 kts | 87° |
| 2026-05-06 11:24 | 51.02509 | -18.11335 | 37103 ft | 490 kts | 87° |
| 2026-05-06 11:25 | 51.02560 | -18.00571 | 37104 ft | 489 kts | 87° |
| 2026-05-06 11:25 | 51.02602 | -17.89766 | 37106 ft | 489 kts | 87° |
| 2026-05-06 11:26 | 51.02633 | -17.78963 | 37104 ft | 489 kts | 87° |
| 2026-05-06 11:26 | 51.02655 | -17.68143 | 37103 ft | 489 kts | 87° |
| 2026-05-06 11:27 | 51.02667 | -17.57333 | 37102 ft | 489 kts | 87° |
| 2026-05-06 11:27 | 51.02669 | -17.46594 | 37106 ft | 489 kts | 87° |
| 2026-05-06 11:28 | 51.02660 | -17.35770 | 37101 ft | 489 kts | 87° |
| 2026-05-06 11:28 | 51.02642 | -17.24981 | 37100 ft | 488 kts | 87° |
| 2026-05-06 11:29 | 51.02615 | -17.14260 | 37105 ft | 488 kts | 87° |
| 2026-05-06 11:29 | 51.02577 | -17.03461 | 37107 ft | 488 kts | 88° |
| 2026-05-06 11:30 | 51.02529 | -16.92744 | 37103 ft | 487 kts | 88° |
| 2026-05-06 11:30 | 51.02471 | -16.81970 | 37094 ft | 487 kts | 88° |
| 2026-05-06 11:31 | 51.02404 | -16.71212 | 37099 ft | 487 kts | 88° |
| 2026-05-06 11:31 | 51.02327 | -16.60456 | 37096 ft | 487 kts | 88° |
| 2026-05-06 11:32 | 51.02240 | -16.49773 | 37108 ft | 487 kts | 88° |
| 2026-05-06 11:32 | 51.02143 | -16.38994 | 37101 ft | 486 kts | 88° |
| 2026-05-06 11:33 | 51.02048 | -16.29398 | 37098 ft | 486 kts | 88° |
| 2026-05-06 11:33 | 51.01937 | -16.19046 | 37106 ft | 486 kts | 88° |
| 2026-05-06 11:34 | 51.01812 | -16.08306 | 37090 ft | 486 kts | 88° |
| 2026-05-06 11:34 | 51.01678 | -15.97645 | 37098 ft | 486 kts | 88° |
| 2026-05-06 11:35 | 51.01534 | -15.86912 | 37103 ft | 485 kts | 89° |
| 2026-05-06 11:35 | 51.01380 | -15.76201 | 37096 ft | 485 kts | 89° |
| 2026-05-06 11:36 | 51.01216 | -15.65478 | 37100 ft | 485 kts | 89° |
| 2026-05-06 11:36 | 51.01043 | -15.54822 | 37098 ft | 485 kts | 89° |
| 2026-05-06 11:37 | 51.00859 | -15.44104 | 37095 ft | 485 kts | 89° |
| 2026-05-06 11:37 | 51.00666 | -15.33367 | 37094 ft | 486 kts | 89° |
| 2026-05-06 11:38 | 51.00463 | -15.22651 | 37095 ft | 486 kts | 89° |
| 2026-05-06 11:38 | 51.00250 | -15.11935 | 37096 ft | 485 kts | 89° |
| 2026-05-06 11:39 | 51.00028 | -15.01267 | 37092 ft | 486 kts | 89° |
| 2026-05-06 11:39 | 51.00054 | -14.90560 | 37092 ft | 486 kts | 88° |
| 2026-05-06 11:40 | 51.00059 | -14.79837 | 37090 ft | 486 kts | 87° |
| 2026-05-06 11:40 | 51.00098 | -14.69095 | 37091 ft | 486 kts | 88° |
| 2026-05-06 11:41 | 51.00100 | -14.59493 | 37094 ft | 486 kts | 88° |
| 2026-05-06 11:41 | 51.00110 | -14.48840 | 37089 ft | 485 kts | 88° |
| 2026-05-06 11:42 | 51.00101 | -14.38101 | 37089 ft | 486 kts | 88° |
| 2026-05-06 11:42 | 51.00086 | -14.27361 | 37094 ft | 486 kts | 88° |
| 2026-05-06 11:43 | 51.00060 | -14.16630 | 37086 ft | 486 kts | 88° |
| 2026-05-06 11:43 | 51.00000 | -14.05953 | 37097 ft | 487 kts | 93° |
| 2026-05-06 11:44 | 50.98289 | -13.95523 | 37111 ft | 494 kts | 115° |
| 2026-05-06 11:44 | 50.96631 | -13.90732 | 37078 ft | 496 kts | 118° |
| 2026-05-06 11:44 | 50.93182 | -13.81267 | 37094 ft | 495 kts | 118° |
| 2026-05-06 11:45 | 50.89735 | -13.71866 | 37089 ft | 496 kts | 118° |
| 2026-05-06 11:45 | 50.86268 | -13.62415 | 37088 ft | 496 kts | 119° |
| 2026-05-06 11:46 | 50.82786 | -13.52986 | 37088 ft | 496 kts | 119° |
| 2026-05-06 11:46 | 50.79298 | -13.43555 | 37090 ft | 496 kts | 119° |
| 2026-05-06 11:47 | 50.75952 | -13.34554 | 37090 ft | 496 kts | 119° |
| 2026-05-06 11:47 | 50.72450 | -13.25156 | 37088 ft | 496 kts | 119° |
| 2026-05-06 11:48 | 50.68939 | -13.15774 | 37087 ft | 497 kts | 120° |
| 2026-05-06 11:48 | 50.65416 | -13.06393 | 37087 ft | 497 kts | 120° |
| 2026-05-06 11:49 | 50.61884 | -12.97022 | 37087 ft | 497 kts | 120° |
| 2026-05-06 11:49 | 50.58341 | -12.87655 | 37087 ft | 497 kts | 120° |
| 2026-05-06 11:50 | 50.54794 | -12.78313 | 37086 ft | 497 kts | 120° |
| 2026-05-06 11:50 | 50.51265 | -12.69052 | 37085 ft | 497 kts | 120° |
| 2026-05-06 11:51 | 50.47702 | -12.59735 | 37086 ft | 497 kts | 120° |
| 2026-05-06 11:51 | 50.44129 | -12.50423 | 37088 ft | 497 kts | 120° |
| 2026-05-06 11:52 | 50.40551 | -12.41134 | 37084 ft | 497 kts | 121° |
| 2026-05-06 11:52 | 50.36994 | -12.31931 | 37086 ft | 497 kts | 121° |
| 2026-05-06 11:53 | 50.33402 | -12.22672 | 37084 ft | 497 kts | 121° |
| 2026-05-06 11:53 | 50.29809 | -12.13441 | 37086 ft | 497 kts | 121° |
| 2026-05-06 11:54 | 50.26812 | -12.05766 | 37085 ft | 497 kts | 121° |
| 2026-05-06 11:54 | 50.23203 | -11.96555 | 37089 ft | 497 kts | 121° |
| 2026-05-06 11:55 | 50.19606 | -11.87407 | 37085 ft | 497 kts | 121° |
| 2026-05-06 11:55 | 50.15973 | -11.78200 | 37080 ft | 496 kts | 121° |
| 2026-05-06 11:56 | 50.11756 | -11.67553 | 37086 ft | 497 kts | 121° |
| 2026-05-06 11:56 | 50.08732 | -11.59945 | 37085 ft | 497 kts | 122° |
| 2026-05-06 11:57 | 50.05090 | -11.50809 | 37085 ft | 496 kts | 122° |
| 2026-05-06 11:57 | 50.01438 | -11.41682 | 37083 ft | 496 kts | 122° |
| 2026-05-06 11:58 | 49.97773 | -11.32555 | 37081 ft | 497 kts | 122° |
| 2026-05-06 11:58 | 49.94112 | -11.23468 | 37081 ft | 497 kts | 122° |
| 2026-05-06 11:59 | 49.90441 | -11.14389 | 37083 ft | 497 kts | 122° |
| 2026-05-06 11:59 | 49.86763 | -11.05324 | 37077 ft | 496 kts | 122° |
| 2026-05-06 12:00 | 49.83100 | -10.96323 | 37077 ft | 496 kts | 122° |
| 2026-05-06 12:00 | 49.79399 | -10.87264 | 37077 ft | 497 kts | 123° |
| 2026-05-06 12:01 | 49.75690 | -10.78215 | 37073 ft | 497 kts | 123° |
| 2026-05-06 12:01 | 49.71980 | -10.69195 | 37075 ft | 497 kts | 123° |
| 2026-05-06 12:02 | 49.68372 | -10.60454 | 37074 ft | 497 kts | 123° |
| 2026-05-06 12:02 | 49.64975 | -10.52248 | 37068 ft | 497 kts | 123° |
| 2026-05-06 12:03 | 49.61247 | -10.43273 | 37066 ft | 497 kts | 123° |
| 2026-05-06 12:03 | 49.57511 | -10.34309 | 37072 ft | 497 kts | 123° |
| 2026-05-06 12:04 | 49.53772 | -10.25368 | 37069 ft | 497 kts | 123° |
| 2026-05-06 12:04 | 49.50048 | -10.16491 | 37068 ft | 496 kts | 123° |
| 2026-05-06 12:05 | 49.46297 | -10.07582 | 37066 ft | 496 kts | 123° |
| 2026-05-06 12:05 | 49.42533 | -9.98671 | 37061 ft | 496 kts | 123° |
| 2026-05-06 12:06 | 49.38769 | -9.89790 | 37059 ft | 496 kts | 124° |
| 2026-05-06 12:06 | 49.34995 | -9.80916 | 37055 ft | 496 kts | 124° |
| 2026-05-06 12:07 | 49.31217 | -9.72062 | 37055 ft | 496 kts | 124° |
| 2026-05-06 12:07 | 49.27459 | -9.63281 | 37057 ft | 496 kts | 124° |
| 2026-05-06 12:08 | 49.23658 | -9.54433 | 37055 ft | 496 kts | 124° |
| 2026-05-06 12:08 | 49.19856 | -9.45610 | 37054 ft | 496 kts | 124° |
| 2026-05-06 12:09 | 49.16045 | -9.36796 | 37053 ft | 497 kts | 124° |
| 2026-05-06 12:09 | 49.12226 | -9.27993 | 37049 ft | 496 kts | 124° |
| 2026-05-06 12:10 | 49.08407 | -9.19217 | 37051 ft | 496 kts | 124° |
| 2026-05-06 12:10 | 49.04583 | -9.10538 | 37054 ft | 495 kts | 129° |
| 2026-05-06 12:11 | 49.02242 | -9.06698 | 37077 ft | 494 kts | 141° |
| 2026-05-06 12:11 | 48.99455 | -9.03640 | 37090 ft | 493 kts | 152° |
| 2026-05-06 12:11 | 48.96338 | -9.01471 | 37086 ft | 490 kts | 163° |
| 2026-05-06 12:11 | 48.93066 | -9.00286 | 37080 ft | 488 kts | 175° |
| 2026-05-06 12:12 | 48.86277 | -8.99978 | 37059 ft | 488 kts | 181° |
| 2026-05-06 12:12 | 48.79486 | -9.00009 | 37065 ft | 487 kts | 181° |
| 2026-05-06 12:13 | 48.72744 | -8.99996 | 37058 ft | 487 kts | 181° |
| 2026-05-06 12:13 | 48.66000 | -9.00000 | 37053 ft | 474 kts | 181° |
| 2026-05-06 12:14 | 48.62751 | -9.00001 | 37050 ft | 460 kts | 181° |
| 2026-05-06 12:14 | 48.59590 | -8.99998 | 37042 ft | 447 kts | 181° |
| 2026-05-06 12:14 | 48.53362 | -9.00004 | 37047 ft | 453 kts | 181° |
| 2026-05-06 12:15 | 48.46949 | -9.00043 | 37058 ft | 467 kts | 181° |
| 2026-05-06 12:15 | 48.40390 | -9.00114 | 37063 ft | 481 kts | 182° |
| 2026-05-06 12:16 | 48.33628 | -9.00216 | 37060 ft | 487 kts | 182° |
| 2026-05-06 12:16 | 48.26842 | -9.00345 | 37070 ft | 487 kts | 182° |
| 2026-05-06 12:17 | 48.20046 | -9.00498 | 37067 ft | 487 kts | 182° |
| 2026-05-06 12:17 | 48.14079 | -9.00653 | 37068 ft | 487 kts | 182° |
| 2026-05-06 12:18 | 48.07995 | -9.00830 | 37069 ft | 487 kts | 182° |
| 2026-05-06 12:18 | 48.01219 | -9.01051 | 37069 ft | 487 kts | 182° |
| 2026-05-06 12:19 | 47.94438 | -9.01296 | 37069 ft | 487 kts | 182° |
| 2026-05-06 12:19 | 47.87784 | -9.00625 | 37088 ft | 489 kts | 165° |
| 2026-05-06 12:20 | 47.84594 | -8.98839 | 37090 ft | 492 kts | 154° |
| 2026-05-06 12:20 | 47.81683 | -8.96173 | 37090 ft | 493 kts | 142° |
| 2026-05-06 12:20 | 47.76561 | -8.89467 | 37070 ft | 494 kts | 139° |
| 2026-05-06 12:21 | 47.71460 | -8.82646 | 37069 ft | 493 kts | 139° |
| 2026-05-06 12:21 | 47.66335 | -8.75850 | 37070 ft | 494 kts | 139° |
| 2026-05-06 12:22 | 47.61219 | -8.69061 | 37066 ft | 494 kts | 139° |
| 2026-05-06 12:22 | 47.56087 | -8.62284 | 37069 ft | 494 kts | 139° |
| 2026-05-06 12:23 | 47.50982 | -8.55553 | 37069 ft | 493 kts | 139° |
| 2026-05-06 12:23 | 47.45849 | -8.48808 | 37067 ft | 493 kts | 139° |
| 2026-05-06 12:24 | 47.40710 | -8.42071 | 37066 ft | 493 kts | 139° |
| 2026-05-06 12:24 | 47.35759 | -8.35599 | 37064 ft | 493 kts | 139° |
| 2026-05-06 12:25 | 47.30648 | -8.28935 | 37063 ft | 493 kts | 139° |
| 2026-05-06 12:25 | 47.25500 | -8.22241 | 37060 ft | 493 kts | 139° |
| 2026-05-06 12:26 | 47.20357 | -8.15571 | 37060 ft | 492 kts | 139° |
| 2026-05-06 12:26 | 47.15207 | -8.08910 | 37058 ft | 493 kts | 139° |
| 2026-05-06 12:27 | 47.10089 | -8.02308 | 37056 ft | 492 kts | 140° |
| 2026-05-06 12:27 | 47.04934 | -7.95677 | 37056 ft | 492 kts | 140° |
| 2026-05-06 12:28 | 46.99782 | -7.89066 | 37053 ft | 493 kts | 140° |
| 2026-05-06 12:28 | 46.94612 | -7.82451 | 37050 ft | 492 kts | 140° |
| 2026-05-06 12:29 | 46.89438 | -7.75848 | 37049 ft | 493 kts | 140° |
| 2026-05-06 12:29 | 46.84300 | -7.69308 | 37050 ft | 493 kts | 140° |
| 2026-05-06 12:30 | 46.79119 | -7.62732 | 37047 ft | 493 kts | 140° |
| 2026-05-06 12:30 | 46.73930 | -7.56162 | 37046 ft | 494 kts | 140° |
| 2026-05-06 12:31 | 46.68774 | -7.49650 | 37044 ft | 493 kts | 140° |
| 2026-05-06 12:31 | 46.63582 | -7.43112 | 37041 ft | 494 kts | 140° |
| 2026-05-06 12:32 | 46.59060 | -7.37431 | 37041 ft | 494 kts | 140° |
| 2026-05-06 12:32 | 46.53953 | -7.31030 | 37041 ft | 493 kts | 140° |
| 2026-05-06 12:33 | 46.48748 | -7.24524 | 37044 ft | 493 kts | 140° |
| 2026-05-06 12:33 | 46.43538 | -7.18028 | 37041 ft | 493 kts | 140° |
| 2026-05-06 12:34 | 46.38361 | -7.11591 | 37040 ft | 493 kts | 140° |
| 2026-05-06 12:34 | 46.33145 | -7.05121 | 37042 ft | 493 kts | 140° |
| 2026-05-06 12:35 | 46.27913 | -6.98650 | 37040 ft | 493 kts | 140° |
| 2026-05-06 12:35 | 46.22724 | -6.92247 | 37041 ft | 493 kts | 140° |
| 2026-05-06 12:36 | 46.17498 | -6.85816 | 37036 ft | 493 kts | 140° |
| 2026-05-06 12:36 | 46.12271 | -6.79399 | 37041 ft | 493 kts | 140° |
| 2026-05-06 12:37 | 46.07035 | -6.72990 | 37041 ft | 493 kts | 140° |
| 2026-05-06 12:37 | 46.01804 | -6.66602 | 37040 ft | 493 kts | 140° |
| 2026-05-06 12:38 | 45.96604 | -6.60268 | 37039 ft | 492 kts | 141° |
| 2026-05-06 12:38 | 45.91370 | -6.53909 | 37038 ft | 492 kts | 141° |
| 2026-05-06 12:39 | 45.86139 | -6.47571 | 37038 ft | 492 kts | 141° |
| 2026-05-06 12:39 | 45.80895 | -6.41232 | 37037 ft | 492 kts | 141° |
| 2026-05-06 12:40 | 45.75685 | -6.34950 | 37038 ft | 492 kts | 141° |
| 2026-05-06 12:40 | 45.70437 | -6.28639 | 37037 ft | 492 kts | 141° |
| 2026-05-06 12:41 | 45.65195 | -6.22351 | 37048 ft | 492 kts | 141° |
| 2026-05-06 12:41 | 45.59942 | -6.16066 | 37046 ft | 492 kts | 141° |
| 2026-05-06 12:42 | 45.54687 | -6.09794 | 37043 ft | 493 kts | 141° |
| 2026-05-06 12:42 | 45.49454 | -6.03564 | 37044 ft | 493 kts | 141° |
| 2026-05-06 12:43 | 45.44169 | -5.97289 | 37041 ft | 493 kts | 141° |
| 2026-05-06 12:43 | 45.39783 | -5.92092 | 37038 ft | 493 kts | 141° |
| 2026-05-06 12:44 | 45.33644 | -5.84838 | 37040 ft | 494 kts | 141° |
| 2026-05-06 12:44 | 45.29213 | -5.79614 | 37047 ft | 494 kts | 141° |
| 2026-05-06 12:45 | 45.23944 | -5.73417 | 37040 ft | 495 kts | 141° |
| 2026-05-06 12:46 | 45.15976 | -5.64075 | 37040 ft | 495 kts | 141° |
| 2026-05-06 12:46 | 45.10666 | -5.57868 | 37035 ft | 495 kts | 141° |
| 2026-05-06 12:47 | 45.05339 | -5.51659 | 37024 ft | 496 kts | 141° |
| 2026-05-06 12:47 | 45.00044 | -5.45500 | 37031 ft | 496 kts | 141° |
| 2026-05-06 12:48 | 44.94702 | -5.39303 | 37033 ft | 496 kts | 141° |
| 2026-05-06 12:48 | 44.89360 | -5.33121 | 37035 ft | 497 kts | 141° |
| 2026-05-06 12:49 | 44.84000 | -5.26934 | 37033 ft | 497 kts | 141° |
| 2026-05-06 12:49 | 44.78683 | -5.20811 | 37031 ft | 497 kts | 142° |
| 2026-05-06 12:50 | 44.73316 | -5.14645 | 37030 ft | 498 kts | 142° |
| 2026-05-06 12:50 | 44.67941 | -5.08488 | 37027 ft | 498 kts | 142° |
| 2026-05-06 12:51 | 44.62557 | -5.02333 | 37028 ft | 498 kts | 142° |
| 2026-05-06 12:51 | 44.57178 | -4.96200 | 37028 ft | 498 kts | 142° |
| 2026-05-06 12:52 | 44.51793 | -4.90076 | 37027 ft | 498 kts | 142° |
| 2026-05-06 12:52 | 44.46431 | -4.83992 | 37021 ft | 499 kts | 142° |
| 2026-05-06 12:53 | 44.41036 | -4.77885 | 37020 ft | 498 kts | 142° |
| 2026-05-06 12:53 | 44.35636 | -4.71788 | 37018 ft | 498 kts | 142° |
| 2026-05-06 12:54 | 44.30229 | -4.65698 | 37022 ft | 499 kts | 142° |
| 2026-05-06 12:54 | 44.25048 | -4.59877 | 37016 ft | 499 kts | 142° |
| 2026-05-06 12:55 | 44.19635 | -4.53809 | 37019 ft | 498 kts | 142° |
| 2026-05-06 12:55 | 44.14217 | -4.47751 | 37016 ft | 499 kts | 142° |
| 2026-05-06 12:56 | 44.08826 | -4.41737 | 37016 ft | 499 kts | 143° |
| 2026-05-06 12:56 | 44.03404 | -4.35703 | 37018 ft | 499 kts | 143° |
| 2026-05-06 12:57 | 43.97975 | -4.29676 | 37021 ft | 499 kts | 143° |
| 2026-05-06 12:57 | 43.92542 | -4.23659 | 37013 ft | 499 kts | 143° |
| 2026-05-06 12:58 | 43.87105 | -4.17652 | 37018 ft | 499 kts | 143° |
| 2026-05-06 12:58 | 43.81662 | -4.11653 | 37019 ft | 500 kts | 143° |
| 2026-05-06 12:59 | 43.76244 | -4.05696 | 37023 ft | 500 kts | 143° |
| 2026-05-06 12:59 | 43.70792 | -3.99716 | 37027 ft | 500 kts | 143° |
| 2026-05-06 13:00 | 43.65331 | -3.93739 | 37031 ft | 500 kts | 143° |
| 2026-05-06 13:00 | 43.59861 | -3.87769 | 37043 ft | 500 kts | 143° |
| 2026-05-06 13:01 | 43.54429 | -3.81853 | 37038 ft | 501 kts | 143° |
| 2026-05-06 13:01 | 43.49140 | -3.76106 | 37041 ft | 501 kts | 143° |
| 2026-05-06 13:02 | 43.44069 | -3.70609 | 37044 ft | 502 kts | 144° |
| 2026-05-06 13:02 | 43.38571 | -3.64662 | 37034 ft | 502 kts | 144° |
| 2026-05-06 13:03 | 43.33076 | -3.58732 | 37043 ft | 502 kts | 144° |
| 2026-05-06 13:03 | 43.27570 | -3.52805 | 37044 ft | 501 kts | 144° |
| 2026-05-06 13:04 | 43.22083 | -3.46912 | 37031 ft | 501 kts | 144° |
| 2026-05-06 13:04 | 43.16425 | -3.41498 | 37043 ft | 499 kts | 151° |
| 2026-05-06 13:05 | 43.10909 | -3.35566 | 37042 ft | 505 kts | 141° |
| 2026-05-06 13:05 | 43.05470 | -3.29510 | 37034 ft | 503 kts | 145° |
| 2026-05-06 13:06 | 42.99967 | -3.23592 | 37033 ft | 504 kts | 143° |
| 2026-05-06 13:06 | 42.96490 | -3.19729 | 37030 ft | 504 kts | 144° |
| 2026-05-06 13:07 | 42.90981 | -3.13800 | 37027 ft | 504 kts | 144° |
| 2026-05-06 13:07 | 42.85503 | -3.07828 | 37025 ft | 504 kts | 144° |
| 2026-05-06 13:08 | 42.80029 | -3.01921 | 37016 ft | 504 kts | 144° |
| 2026-05-06 13:08 | 42.74537 | -2.95985 | 37015 ft | 504 kts | 144° |
| 2026-05-06 13:09 | 42.69727 | -2.90806 | 37014 ft | 504 kts | 144° |
| 2026-05-06 13:09 | 42.64224 | -2.84893 | 37011 ft | 504 kts | 144° |
| 2026-05-06 13:10 | 42.58720 | -2.78991 | 37003 ft | 504 kts | 144° |
| 2026-05-06 13:10 | 42.53243 | -2.73132 | 36996 ft | 504 kts | 144° |
| 2026-05-06 13:11 | 42.47730 | -2.67247 | 36991 ft | 503 kts | 144° |
| 2026-05-06 13:11 | 42.42228 | -2.61389 | 36997 ft | 503 kts | 145° |
| 2026-05-06 13:12 | 42.36718 | -2.55535 | 36994 ft | 503 kts | 145° |
| 2026-05-06 13:12 | 42.31220 | -2.49707 | 36981 ft | 502 kts | 145° |
| 2026-05-06 13:13 | 42.25711 | -2.43882 | 36980 ft | 504 kts | 145° |
| 2026-05-06 13:13 | 42.20222 | -2.38089 | 36974 ft | 504 kts | 145° |
| 2026-05-06 13:14 | 42.14683 | -2.32258 | 36971 ft | 503 kts | 145° |
| 2026-05-06 13:14 | 42.09165 | -2.26461 | 36968 ft | 503 kts | 146° |
| 2026-05-06 13:15 | 42.03636 | -2.20669 | 36962 ft | 503 kts | 146° |
| 2026-05-06 13:15 | 41.98108 | -2.14888 | 36964 ft | 503 kts | 146° |
| 2026-05-06 13:16 | 41.92626 | -2.09169 | 36958 ft | 502 kts | 146° |
| 2026-05-06 13:16 | 41.87095 | -2.03412 | 36955 ft | 502 kts | 146° |
| 2026-05-06 13:17 | 41.81574 | -1.97678 | 36959 ft | 502 kts | 146° |
| 2026-05-06 13:17 | 41.76054 | -1.91958 | 36963 ft | 501 kts | 146° |
| 2026-05-06 13:18 | 41.70574 | -1.86291 | 36961 ft | 500 kts | 146° |
| 2026-05-06 13:18 | 41.65057 | -1.80600 | 36958 ft | 500 kts | 146° |
| 2026-05-06 13:19 | 41.59548 | -1.74929 | 36956 ft | 500 kts | 146° |
| 2026-05-06 13:19 | 41.54034 | -1.69266 | 36954 ft | 499 kts | 146° |
| 2026-05-06 13:20 | 41.48561 | -1.63656 | 36958 ft | 498 kts | 147° |
| 2026-05-06 13:20 | 41.43064 | -1.58036 | 36961 ft | 497 kts | 146° |
| 2026-05-06 13:21 | 41.37557 | -1.52416 | 36959 ft | 497 kts | 147° |
| 2026-05-06 13:21 | 41.32054 | -1.46814 | 36962 ft | 497 kts | 147° |
| 2026-05-06 13:22 | 41.26550 | -1.41222 | 36961 ft | 496 kts | 147° |
| 2026-05-06 13:22 | 41.21096 | -1.35693 | 36964 ft | 496 kts | 147° |
| 2026-05-06 13:23 | 41.15612 | -1.30147 | 36961 ft | 495 kts | 147° |
| 2026-05-06 13:23 | 41.10699 | -1.25188 | 36962 ft | 495 kts | 147° |
| 2026-05-06 13:24 | 41.05318 | -1.19766 | 36959 ft | 495 kts | 148° |
| 2026-05-06 13:24 | 41.00061 | -1.14481 | 36965 ft | 494 kts | 148° |
| 2026-05-06 13:25 | 40.94613 | -1.09016 | 36954 ft | 494 kts | 148° |
| 2026-05-06 13:25 | 40.89127 | -1.03523 | 36950 ft | 494 kts | 148° |
| 2026-05-06 13:26 | 40.83644 | -0.98047 | 36955 ft | 493 kts | 148° |
| 2026-05-06 13:26 | 40.78165 | -0.92584 | 36944 ft | 493 kts | 148° |
| 2026-05-06 13:27 | 40.72718 | -0.87166 | 36959 ft | 493 kts | 148° |
| 2026-05-06 13:27 | 40.67235 | -0.81723 | 36951 ft | 493 kts | 148° |
| 2026-05-06 13:28 | 40.61786 | -0.76321 | 36938 ft | 483 kts | 149° |
| 2026-05-06 13:28 | 40.56403 | -0.71009 | 36938 ft | 484 kts | 149° |
| 2026-05-06 13:29 | 40.51019 | -0.65692 | 36939 ft | 484 kts | 149° |
| 2026-05-06 13:29 | 40.45658 | -0.60417 | 36946 ft | 483 kts | 149° |
| 2026-05-06 13:30 | 40.40268 | -0.55120 | 36951 ft | 483 kts | 149° |
| 2026-05-06 13:30 | 40.34880 | -0.49839 | 36962 ft | 484 kts | 149° |
| 2026-05-06 13:31 | 40.29483 | -0.44557 | 36955 ft | 484 kts | 149° |
| 2026-05-06 13:31 | 40.24744 | -0.39931 | 36959 ft | 484 kts | 149° |
| 2026-05-06 13:32 | 40.20089 | -0.35393 | 36954 ft | 484 kts | 150° |
| 2026-05-06 13:32 | 40.14680 | -0.30128 | 36957 ft | 484 kts | 150° |
| 2026-05-06 13:33 | 40.09269 | -0.24875 | 36954 ft | 483 kts | 150° |
| 2026-05-06 13:33 | 40.03899 | -0.19673 | 36953 ft | 484 kts | 150° |
| 2026-05-06 13:34 | 39.99373 | -0.15294 | 36955 ft | 483 kts | 150° |
| 2026-05-06 13:34 | 39.93996 | -0.10103 | 36972 ft | 484 kts | 150° |
| 2026-05-06 13:35 | 39.88577 | -0.04882 | 36964 ft | 484 kts | 150° |
| 2026-05-06 13:35 | 39.83161 | 0.00327 | 36957 ft | 484 kts | 150° |
| 2026-05-06 13:36 | 39.77753 | 0.05516 | 36950 ft | 483 kts | 150° |
| 2026-05-06 13:36 | 39.72343 | 0.10697 | 36952 ft | 483 kts | 150° |
| 2026-05-06 13:37 | 39.66939 | 0.15863 | 36952 ft | 482 kts | 150° |
| 2026-05-06 13:37 | 39.61529 | 0.21023 | 36949 ft | 482 kts | 150° |
| 2026-05-06 13:38 | 39.56124 | 0.26170 | 36952 ft | 482 kts | 150° |
| 2026-05-06 13:38 | 39.50748 | 0.31277 | 36945 ft | 482 kts | 150° |
| 2026-05-06 13:39 | 39.46027 | 0.35755 | 36952 ft | 482 kts | 150° |
| 2026-05-06 13:39 | 39.41304 | 0.40227 | 36948 ft | 481 kts | 150° |
| 2026-05-06 13:40 | 39.35895 | 0.45338 | 36944 ft | 481 kts | 150° |
| 2026-05-06 13:40 | 39.30489 | 0.50437 | 36948 ft | 480 kts | 151° |
| 2026-05-06 13:41 | 39.25092 | 0.55517 | 36944 ft | 480 kts | 151° |
| 2026-05-06 13:41 | 39.19727 | 0.60558 | 36948 ft | 479 kts | 151° |
| 2026-05-06 13:42 | 39.14329 | 0.65620 | 36945 ft | 479 kts | 151° |
| 2026-05-06 13:42 | 39.08967 | 0.70643 | 36947 ft | 468 kts | 151° |
| 2026-05-06 13:42 | 39.06384 | 0.73068 | 36831 ft | 447 kts | 151° |
| 2026-05-06 13:43 | 39.03948 | 0.75351 | 36636 ft | 421 kts | 152° |
| 2026-05-06 13:43 | 39.01625 | 0.77512 | 36185 ft | 405 kts | 153° |
| 2026-05-06 13:43 | 38.99367 | 0.79602 | 35538 ft | 395 kts | 153° |
| 2026-05-06 13:43 | 38.97224 | 0.81788 | 34849 ft | 396 kts | 142° |
| 2026-05-06 13:44 | 38.95448 | 0.84450 | 34184 ft | 399 kts | 131° |
| 2026-05-06 13:44 | 38.94076 | 0.87554 | 33388 ft | 400 kts | 124° |
| 2026-05-06 13:44 | 38.92775 | 0.90692 | 32589 ft | 394 kts | 125° |
| 2026-05-06 13:44 | 38.91489 | 0.93782 | 31832 ft | 390 kts | 124° |
| 2026-05-06 13:45 | 38.90237 | 0.96850 | 31102 ft | 385 kts | 124° |
| 2026-05-06 13:45 | 38.88691 | 1.03385 | 29593 ft | 390 kts | 92° |
| 2026-05-06 13:45 | 38.88997 | 1.06835 | 28812 ft | 389 kts | 75° |
| 2026-05-06 13:46 | 38.90001 | 1.09987 | 28053 ft | 383 kts | 57° |
| 2026-05-06 13:46 | 38.91618 | 1.12662 | 27276 ft | 375 kts | 39° |
| 2026-05-06 13:46 | 38.93673 | 1.14637 | 26539 ft | 364 kts | 22° |
| 2026-05-06 13:46 | 38.95974 | 1.15822 | 25818 ft | 351 kts | 6° |
| 2026-05-06 13:47 | 38.98347 | 1.16218 | 25102 ft | 337 kts | 352° |
| 2026-05-06 13:47 | 39.00625 | 1.15888 | 24393 ft | 323 kts | 338° |
| 2026-05-06 13:47 | 39.02695 | 1.14932 | 23697 ft | 311 kts | 325° |
| 2026-05-06 13:47 | 39.04477 | 1.13469 | 22925 ft | 299 kts | 313° |
| 2026-05-06 13:48 | 39.05723 | 1.11472 | 22150 ft | 277 kts | 284° |
| 2026-05-06 13:48 | 39.06156 | 1.09141 | 21336 ft | 269 kts | 271° |
| 2026-05-06 13:48 | 39.06084 | 1.06750 | 20732 ft | 268 kts | 259° |
| 2026-05-06 13:48 | 39.05771 | 1.04397 | 20377 ft | 266 kts | 259° |
| 2026-05-06 13:49 | 39.05518 | 1.02040 | 20009 ft | 265 kts | 261° |
| 2026-05-06 13:49 | 39.05314 | 0.99691 | 19645 ft | 264 kts | 262° |
| 2026-05-06 13:49 | 39.05104 | 0.97342 | 19285 ft | 263 kts | 261° |
| 2026-05-06 13:49 | 39.04880 | 0.95010 | 18920 ft | 262 kts | 261° |
| 2026-05-06 13:50 | 39.04655 | 0.92681 | 18563 ft | 262 kts | 261° |
| 2026-05-06 13:50 | 39.04434 | 0.90358 | 18199 ft | 261 kts | 262° |
| 2026-05-06 13:50 | 39.04213 | 0.88040 | 17776 ft | 260 kts | 262° |
| 2026-05-06 13:50 | 39.03993 | 0.85729 | 17387 ft | 259 kts | 262° |
| 2026-05-06 13:51 | 39.03772 | 0.83428 | 16997 ft | 258 kts | 262° |
| 2026-05-06 13:51 | 39.03554 | 0.81162 | 16607 ft | 258 kts | 262° |
| 2026-05-06 13:51 | 39.03335 | 0.78876 | 16221 ft | 256 kts | 262° |
| 2026-05-06 13:51 | 39.03116 | 0.76604 | 15840 ft | 255 kts | 262° |
| 2026-05-06 13:52 | 39.02897 | 0.74336 | 15461 ft | 254 kts | 262° |
| 2026-05-06 13:52 | 39.02678 | 0.72077 | 15089 ft | 254 kts | 262° |
| 2026-05-06 13:52 | 39.02459 | 0.69828 | 14724 ft | 253 kts | 262° |
| 2026-05-06 13:52 | 39.02244 | 0.67616 | 14350 ft | 252 kts | 262° |
| 2026-05-06 13:53 | 39.01733 | 0.65483 | 13971 ft | 251 kts | 242° |
| 2026-05-06 13:53 | 39.00978 | 0.64159 | 13688 ft | 252 kts | 226° |
| 2026-05-06 13:53 | 38.99524 | 0.62892 | 13286 ft | 256 kts | 206° |
| 2026-05-06 13:53 | 38.97775 | 0.62440 | 12875 ft | 261 kts | 182° |
| 2026-05-06 13:54 | 38.95992 | 0.62967 | 12465 ft | 268 kts | 157° |
| 2026-05-06 13:54 | 38.94517 | 0.64437 | 12093 ft | 273 kts | 131° |
| 2026-05-06 13:54 | 38.93657 | 0.66612 | 11716 ft | 276 kts | 104° |
| 2026-05-06 13:54 | 38.93325 | 0.69034 | 11322 ft | 275 kts | 100° |
| 2026-05-06 13:55 | 38.93043 | 0.71465 | 10937 ft | 275 kts | 99° |
| 2026-05-06 13:55 | 38.92762 | 0.73889 | 10563 ft | 274 kts | 99° |
| 2026-05-06 13:55 | 38.92467 | 0.76295 | 10203 ft | 272 kts | 99° |
| 2026-05-06 13:55 | 38.92169 | 0.78693 | 9851 ft | 270 kts | 99° |
| 2026-05-06 13:56 | 38.91882 | 0.81043 | 9469 ft | 269 kts | 99° |
| 2026-05-06 13:56 | 38.91594 | 0.83407 | 9089 ft | 267 kts | 99° |
| 2026-05-06 13:56 | 38.91307 | 0.85753 | 8711 ft | 265 kts | 99° |
| 2026-05-06 13:56 | 38.91020 | 0.88080 | 8359 ft | 262 kts | 99° |
| 2026-05-06 13:57 | 38.90736 | 0.90383 | 8022 ft | 259 kts | 99° |
| 2026-05-06 13:57 | 38.90456 | 0.92651 | 7695 ft | 256 kts | 99° |
| 2026-05-06 13:57 | 38.90179 | 0.94896 | 7362 ft | 253 kts | 99° |
| 2026-05-06 13:57 | 38.89768 | 0.97065 | 6995 ft | 249 kts | 118° |
| 2026-05-06 13:58 | 38.88658 | 0.98678 | 6676 ft | 244 kts | 146° |
| 2026-05-06 13:58 | 38.87155 | 0.99730 | 6337 ft | 242 kts | 152° |
| 2026-05-06 13:58 | 38.85678 | 1.00739 | 6029 ft | 239 kts | 152° |
| 2026-05-06 13:58 | 38.84183 | 1.01570 | 5766 ft | 232 kts | 169° |
| 2026-05-06 13:59 | 38.82616 | 1.01381 | 5476 ft | 230 kts | 200° |
| 2026-05-06 13:59 | 38.81335 | 1.00187 | 5167 ft | 229 kts | 231° |
| 2026-05-06 13:59 | 38.80534 | 0.98422 | 4854 ft | 229 kts | 241° |
| 2026-05-06 13:59 | 38.79790 | 0.96629 | 4600 ft | 224 kts | 242° |
| 2026-05-06 14:00 | 38.78965 | 0.95012 | 4339 ft | 212 kts | 225° |
| 2026-05-06 14:00 | 38.77902 | 0.93777 | 4171 ft | 201 kts | 221° |
| 2026-05-06 14:00 | 38.76881 | 0.92571 | 3894 ft | 198 kts | 221° |
| 2026-05-06 14:00 | 38.75871 | 0.91370 | 3588 ft | 197 kts | 221° |
| 2026-05-06 14:01 | 38.74756 | 0.90433 | 3210 ft | 196 kts | 194° |
| 2026-05-06 14:01 | 38.73440 | 0.90564 | 2973 ft | 187 kts | 156° |
| 2026-05-06 14:01 | 38.72292 | 0.91341 | 3012 ft | 187 kts | 148° |
| 2026-05-06 14:01 | 38.71360 | 0.91996 | 3011 ft | 187 kts | 148° |
| 2026-05-06 14:02 | 38.70381 | 0.92797 | 2964 ft | 185 kts | 134° |
| 2026-05-06 14:02 | 38.69848 | 0.94238 | 2977 ft | 181 kts | 101° |
| 2026-05-06 14:02 | 38.69995 | 0.95794 | 2971 ft | 180 kts | 69° |
| 2026-05-06 14:02 | 38.70593 | 0.97192 | 3002 ft | 177 kts | 61° |
| 2026-05-06 14:03 | 38.71223 | 0.98582 | 3008 ft | 177 kts | 61° |
| 2026-05-06 14:03 | 38.71834 | 0.99972 | 3007 ft | 180 kts | 62° |
| 2026-05-06 14:03 | 38.72390 | 1.01399 | 3003 ft | 179 kts | 65° |
| 2026-05-06 14:03 | 38.72911 | 1.02829 | 3000 ft | 177 kts | 65° |
| 2026-05-06 14:04 | 38.73480 | 1.04262 | 3000 ft | 179 kts | 63° |
| 2026-05-06 14:04 | 38.74079 | 1.05683 | 2997 ft | 179 kts | 62° |
| 2026-05-06 14:04 | 38.74677 | 1.07101 | 3007 ft | 182 kts | 62° |
| 2026-05-06 14:04 | 38.75275 | 1.08525 | 3001 ft | 182 kts | 63° |
| 2026-05-06 14:05 | 38.75851 | 1.09900 | 2999 ft | 170 kts | 62° |
| 2026-05-06 14:05 | 38.76401 | 1.11212 | 3001 ft | 169 kts | 63° |
| 2026-05-06 14:05 | 38.76945 | 1.12515 | 2995 ft | 166 kts | 62° |
| 2026-05-06 14:05 | 38.77492 | 1.13818 | 2990 ft | 163 kts | 63° |
| 2026-05-06 14:06 | 38.78032 | 1.15109 | 2998 ft | 166 kts | 63° |
| 2026-05-06 14:06 | 38.78567 | 1.16392 | 3002 ft | 165 kts | 62° |
| 2026-05-06 14:06 | 38.79115 | 1.17699 | 2915 ft | 164 kts | 62° |
| 2026-05-06 14:06 | 38.79649 | 1.18982 | 2752 ft | 159 kts | 62° |
| 2026-05-06 14:07 | 38.80162 | 1.20204 | 2575 ft | 151 kts | 62° |
| 2026-05-06 14:07 | 38.80642 | 1.21355 | 2418 ft | 147 kts | 62° |
| 2026-05-06 14:07 | 38.81109 | 1.22475 | 2290 ft | 143 kts | 62° |
| 2026-05-06 14:07 | 38.81613 | 1.23677 | 2150 ft | 155 kts | 62° |
| 2026-05-06 14:08 | 38.82076 | 1.24796 | 1946 ft | 152 kts | 62° |
| 2026-05-06 14:08 | 38.82579 | 1.25993 | 1741 ft | 149 kts | 62° |
| 2026-05-06 14:08 | 38.83048 | 1.27129 | 1528 ft | 138 kts | 61° |
| 2026-05-06 14:08 | 38.83502 | 1.28207 | 1373 ft | 140 kts | 62° |
| 2026-05-06 14:09 | 38.83866 | 1.29093 | 1202 ft | 132 kts | 61° |
| 2026-05-06 14:09 | 38.84238 | 1.29976 | 1062 ft | 137 kts | 61° |
| 2026-05-06 14:09 | 38.84689 | 1.31053 | 874 ft | 140 kts | 62° |
| 2026-05-06 14:09 | 38.85137 | 1.32128 | 697 ft | 140 kts | 63° |
| 2026-05-06 14:10 | 38.85604 | 1.33218 | 591 ft | 136 kts | 60° |
| 2026-05-06 14:10 | 38.86056 | 1.34256 | 320 ft | 140 kts | 64° |
| 2026-05-06 14:10 | 38.86480 | 1.35313 | 162 ft | 130 kts | 65° |
| 2026-05-06 14:10 | 38.86885 | 1.36340 | 35 ft | 127 kts | 64° |
| 2026-05-06 14:11 | 38.87272 | 1.37274 | 35 ft | 110 kts | 61° |
| 2026-05-06 14:11 | 38.87555 | 1.37965 | 34 ft | 60 kts | 62° |
| 2026-05-06 14:11 | 38.87691 | 1.38262 | 34 ft | 21 kts | 28° |
| 2026-05-06 14:11 | 38.87749 | 1.38234 | 34 ft | 12 kts | 326° |
| 2026-05-06 14:12 | 38.87813 | 1.38143 | 34 ft | 10 kts | 269° |
| 2026-05-06 14:12 | 38.87772 | 1.38035 | 34 ft | 17 kts | 241° |
| 2026-05-06 14:12 | 38.87714 | 1.37897 | 34 ft | 19 kts | 242° |
| 2026-05-06 14:12 | 38.87660 | 1.37764 | 34 ft | 20 kts | 241° |
| 2026-05-06 14:13 | 38.87597 | 1.37613 | 33 ft | 18 kts | 241° |
| 2026-05-06 14:13 | 38.87539 | 1.37475 | 33 ft | 10 kts | 242° |
| 2026-05-06 14:13 | 38.87507 | 1.37396 | 33 ft | 11 kts | 242° |
| 2026-05-06 14:13 | 38.87424 | 1.37201 | 33 ft | 33 kts | 241° |
| 2026-05-06 14:14 | 38.87358 | 1.37041 | 33 ft | 14 kts | 242° |
| 2026-05-06 14:14 | 38.87307 | 1.36918 | 33 ft | 11 kts | 242° |
| 2026-05-06 14:14 | 38.87303 | 1.36856 | 33 ft | 4 kts | 302° |
| 2026-05-06 14:14 | 38.87352 | 1.36823 | 33 ft | 12 kts | 336° |
| 2026-05-06 14:15 | 38.87434 | 1.36799 | 33 ft | 4 kts | 27° |
| 2026-05-06 14:15 | 38.87473 | 1.36877 | 33 ft | 15 kts | 63° |
| 2026-05-06 14:15 | 38.87483 | 1.36903 | 33 ft | 3 kts | 62° |
| 2026-05-06 14:15 | 38.87503 | 1.36947 | 33 ft | 1 kts | 52° |
| 2026-05-06 14:16 | 38.87517 | 1.36954 | 33 ft | 4 kts | 20° |
| 2026-05-06 14:16 | 38.87531 | 1.36952 | 33 ft | 1 kts | 346° |
| 2026-05-06 14:16 | 38.87549 | 1.36941 | 33 ft | 6 kts | 336° |
| 2026-05-06 14:16 | 38.87567 | 1.36930 | 33 ft | 2 kts | 334° |
| 2026-05-06 14:17 | 38.87569 | 1.36929 | 33 ft | 0 kts | 334° |